<?xml version='1.0' encoding='UTF-8'?><gpx version="1.1" creator="JPX - https://github.com/jenetics/jpx" xmlns="http://www.topografix.com/GPX/1/1"><trk><trkseg><trkpt lat="46.460921739253145" lon="11.333326219824063"><ele>238.0</ele><time>2026-04-23T13:01:57Z</time></trkpt><trkpt lat="46.46085963480052" lon="11.333277462624958"><ele>238.0</ele><time>2026-04-23T13:01:58Z</time></trkpt><trkpt lat="46.46075309776953" lon="11.333228428599087"><ele>238.0</ele><time>2026-04-23T13:01:59Z</time></trkpt><trkpt lat="46.46064961423965" lon="11.333168969552792"><ele>238.0</ele><time>2026-04-23T13:02:00Z</time></trkpt><trkpt lat="46.46054174902132" lon="11.333101361199468"><ele>238.0</ele><time>2026-04-23T13:02:01Z</time></trkpt><trkpt lat="46.46042978348748" lon="11.333031481356368"><ele>237.75</ele><time>2026-04-23T13:02:02Z</time></trkpt><trkpt lat="46.46030816240987" lon="11.33297003762256"><ele>237.5</ele><time>2026-04-23T13:02:03Z</time></trkpt><trkpt lat="46.46018060218426" lon="11.332907392694432"><ele>237.25</ele><time>2026-04-23T13:02:04Z</time></trkpt><trkpt lat="46.46006064945813" lon="11.332849129344831"><ele>237.0</ele><time>2026-04-23T13:02:05Z</time></trkpt><trkpt lat="46.45994930920662" lon="11.332798952156475"><ele>237.0</ele><time>2026-04-23T13:02:05.999Z</time></trkpt><trkpt lat="46.45984032412599" lon="11.332764748762017"><ele>237.0</ele><time>2026-04-23T13:02:06.999Z</time></trkpt><trkpt lat="46.45972835656748" lon="11.332747607910354"><ele>237.0</ele><time>2026-04-23T13:02:07.999Z</time></trkpt><trkpt lat="46.45961247362563" lon="11.33276949068668"><ele>237.0</ele><time>2026-04-23T13:02:08.999Z</time></trkpt><trkpt lat="46.459487821091514" lon="11.332831260050483"><ele>236.5</ele><time>2026-04-23T13:02:09.999Z</time></trkpt><trkpt lat="46.45936394170263" lon="11.332921512046196"><ele>236.0</ele><time>2026-04-23T13:02:10.999Z</time></trkpt><trkpt lat="46.45924884129484" lon="11.333036868857315"><ele>235.5</ele><time>2026-04-23T13:02:11.999Z</time></trkpt><trkpt lat="46.45913272077108" lon="11.333164010304124"><ele>235.0</ele><time>2026-04-23T13:02:12.999Z</time></trkpt><trkpt lat="46.45902569964833" lon="11.333308324122157"><ele>235.25</ele><time>2026-04-23T13:02:13.999Z</time></trkpt><trkpt lat="46.45891611831615" lon="11.333454087448834"><ele>235.5</ele><time>2026-04-23T13:02:14.999Z</time></trkpt><trkpt lat="46.458809602847566" lon="11.333606594465058"><ele>235.75</ele><time>2026-04-23T13:02:15.999Z</time></trkpt><trkpt lat="46.45871864440961" lon="11.333765729935976"><ele>236.0</ele><time>2026-04-23T13:02:16.999Z</time></trkpt><trkpt lat="46.45864424310941" lon="11.3339376014484"><ele>237.33333333333334</ele><time>2026-04-23T13:02:17.999Z</time></trkpt><trkpt lat="46.45857247498007" lon="11.334112125431307"><ele>238.66666666666669</ele><time>2026-04-23T13:02:18.999Z</time></trkpt><trkpt lat="46.45850500037515" lon="11.334310994549764"><ele>240.0</ele><time>2026-04-23T13:02:19.999Z</time></trkpt><trkpt lat="46.458418026298716" lon="11.33451167119683"><ele>240.0</ele><time>2026-04-23T13:02:20.999Z</time></trkpt><trkpt lat="46.45831377604207" lon="11.334674941659268"><ele>240.0</ele><time>2026-04-23T13:02:21.999Z</time></trkpt><trkpt lat="46.45818639495209" lon="11.334792117945685"><ele>240.0</ele><time>2026-04-23T13:02:22.999Z</time></trkpt><trkpt lat="46.45804551184269" lon="11.33486947296018"><ele>238.33333333333331</ele><time>2026-04-23T13:02:23.999Z</time></trkpt><trkpt lat="46.45789796674417" lon="11.334923315310304"><ele>236.66666666666666</ele><time>2026-04-23T13:02:24.999Z</time></trkpt><trkpt lat="46.45774137070781" lon="11.334979302670565"><ele>235.0</ele><time>2026-04-23T13:02:25.999Z</time></trkpt><trkpt lat="46.457584521469194" lon="11.335039097239033"><ele>235.0</ele><time>2026-04-23T13:02:26.999Z</time></trkpt><trkpt lat="46.45743137452845" lon="11.335094216591278"><ele>235.0</ele><time>2026-04-23T13:02:27.999Z</time></trkpt><trkpt lat="46.457275969230224" lon="11.335145466839903"><ele>235.0</ele><time>2026-04-23T13:02:28.999Z</time></trkpt><trkpt lat="46.45712000746138" lon="11.335183923829215"><ele>235.0</ele><time>2026-04-23T13:02:29.999Z</time></trkpt><trkpt lat="46.4569631064045" lon="11.33521389473404"><ele>235.0</ele><time>2026-04-23T13:02:30.999Z</time></trkpt><trkpt lat="46.456804186303685" lon="11.335233258852389"><ele>235.0</ele><time>2026-04-23T13:02:31.999Z</time></trkpt><trkpt lat="46.456646712556044" lon="11.33524226770157"><ele>235.0</ele><time>2026-04-23T13:02:32.999Z</time></trkpt><trkpt lat="46.456504396247766" lon="11.335237134635888"><ele>235.0</ele><time>2026-04-23T13:02:33.999Z</time></trkpt><trkpt lat="46.456381253252516" lon="11.335235449722076"><ele>235.0</ele><time>2026-04-23T13:02:34.999Z</time></trkpt><trkpt lat="46.45625168019947" lon="11.33523744815193"><ele>235.0</ele><time>2026-04-23T13:02:35.999Z</time></trkpt><trkpt lat="46.4561159403435" lon="11.335245827300406"><ele>234.5</ele><time>2026-04-23T13:02:36.999Z</time></trkpt><trkpt lat="46.45597226993567" lon="11.335243639599044"><ele>234.0</ele><time>2026-04-23T13:02:37.999Z</time></trkpt><trkpt lat="46.45582735225599" lon="11.335239428570336"><ele>233.5</ele><time>2026-04-23T13:02:38.999Z</time></trkpt><trkpt lat="46.455679016842836" lon="11.33523593852597"><ele>233.0</ele><time>2026-04-23T13:02:39.999Z</time></trkpt><trkpt lat="46.455528035581416" lon="11.335225356002654"><ele>232.0</ele><time>2026-04-23T13:02:40.999Z</time></trkpt><trkpt lat="46.455377129270005" lon="11.33521797943667"><ele>231.0</ele><time>2026-04-23T13:02:41.999Z</time></trkpt><trkpt lat="46.455223332911565" lon="11.335208546114293"><ele>230.0</ele><time>2026-04-23T13:02:42.999Z</time></trkpt><trkpt lat="46.455070284086695" lon="11.335194091562457"><ele>230.0</ele><time>2026-04-23T13:02:43.999Z</time></trkpt><trkpt lat="46.45492602310912" lon="11.335172015679841"><ele>230.0</ele><time>2026-04-23T13:02:44.999Z</time></trkpt><trkpt lat="46.45479525890999" lon="11.33514036774803"><ele>230.0</ele><time>2026-04-23T13:02:45.999Z</time></trkpt><trkpt lat="46.45467264091966" lon="11.335109311901192"><ele>230.0</ele><time>2026-04-23T13:02:46.999Z</time></trkpt><trkpt lat="46.454552524452694" lon="11.335076876197528"><ele>230.0</ele><time>2026-04-23T13:02:47.999Z</time></trkpt><trkpt lat="46.45444249655995" lon="11.335043852349592"><ele>230.0</ele><time>2026-04-23T13:02:48.999Z</time></trkpt><trkpt lat="46.45411210213804" lon="11.335082781778722"><ele>230.0</ele><time>2026-04-23T13:02:49.998Z</time></trkpt><trkpt lat="46.453945350781254" lon="11.335125903914019"><ele>230.0</ele><time>2026-04-23T13:02:50.998Z</time></trkpt><trkpt lat="46.45379181506118" lon="11.335184128577792"><ele>230.0</ele><time>2026-04-23T13:02:51.998Z</time></trkpt><trkpt lat="46.453655215719316" lon="11.335231206749706"><ele>230.0</ele><time>2026-04-23T13:02:52.998Z</time></trkpt><trkpt lat="46.45352578009308" lon="11.335274682012798"><ele>230.0</ele><time>2026-04-23T13:02:53.998Z</time></trkpt><trkpt lat="46.453388767812996" lon="11.335323574348452"><ele>230.33333333333334</ele><time>2026-04-23T13:02:54.998Z</time></trkpt><trkpt lat="46.45323137099444" lon="11.335371043610609"><ele>230.66666666666669</ele><time>2026-04-23T13:02:55.998Z</time></trkpt><trkpt lat="46.453055582136614" lon="11.335414960106467"><ele>231.0</ele><time>2026-04-23T13:02:56.998Z</time></trkpt><trkpt lat="46.452884272511284" lon="11.335461040238956"><ele>231.5</ele><time>2026-04-23T13:02:57.998Z</time></trkpt><trkpt lat="46.45273499640093" lon="11.335499123882832"><ele>232.0</ele><time>2026-04-23T13:02:58.998Z</time></trkpt><trkpt lat="46.45259010978745" lon="11.335541970885263"><ele>232.5</ele><time>2026-04-23T13:02:59.998Z</time></trkpt><trkpt lat="46.452445467005795" lon="11.335583642677484"><ele>233.0</ele><time>2026-04-23T13:03:00.998Z</time></trkpt><trkpt lat="46.45230502034771" lon="11.335624142471252"><ele>233.25</ele><time>2026-04-23T13:03:01.998Z</time></trkpt><trkpt lat="46.45216477667384" lon="11.335663246040264"><ele>233.5</ele><time>2026-04-23T13:03:02.998Z</time></trkpt><trkpt lat="46.452028074900916" lon="11.33570503012534"><ele>233.75</ele><time>2026-04-23T13:03:03.998Z</time></trkpt><trkpt lat="46.45189032704601" lon="11.33575036270552"><ele>234.0</ele><time>2026-04-23T13:03:04.998Z</time></trkpt><trkpt lat="46.451750082237695" lon="11.335781943625166"><ele>234.0</ele><time>2026-04-23T13:03:05.998Z</time></trkpt><trkpt lat="46.451612716979454" lon="11.335822831352294"><ele>234.0</ele><time>2026-04-23T13:03:06.998Z</time></trkpt><trkpt lat="46.45147736785839" lon="11.335865449803096"><ele>234.0</ele><time>2026-04-23T13:03:07.998Z</time></trkpt><trkpt lat="46.45135532893198" lon="11.335899228450403"><ele>234.0</ele><time>2026-04-23T13:03:08.998Z</time></trkpt><trkpt lat="46.45123938673829" lon="11.335933253989433"><ele>233.5</ele><time>2026-04-23T13:03:09.998Z</time></trkpt><trkpt lat="46.45112206870036" lon="11.335969498852936"><ele>233.0</ele><time>2026-04-23T13:03:10.998Z</time></trkpt><trkpt lat="46.45100682086901" lon="11.336003235157577"><ele>232.5</ele><time>2026-04-23T13:03:11.998Z</time></trkpt><trkpt lat="46.45088915253128" lon="11.336038675954319"><ele>232.0</ele><time>2026-04-23T13:03:12.998Z</time></trkpt><trkpt lat="46.450777424847644" lon="11.336073159286011"><ele>232.0</ele><time>2026-04-23T13:03:13.998Z</time></trkpt><trkpt lat="46.45067453852146" lon="11.336102794981503"><ele>232.0</ele><time>2026-04-23T13:03:14.998Z</time></trkpt><trkpt lat="46.45058383692391" lon="11.336123376356795"><ele>232.0</ele><time>2026-04-23T13:03:15.998Z</time></trkpt><trkpt lat="46.450497431704804" lon="11.336146455115648"><ele>232.0</ele><time>2026-04-23T13:03:16.998Z</time></trkpt><trkpt lat="46.45041382500172" lon="11.336168039587639"><ele>232.0</ele><time>2026-04-23T13:03:17.998Z</time></trkpt><trkpt lat="46.45033038239628" lon="11.336192318898012"><ele>231.8</ele><time>2026-04-23T13:03:18.998Z</time></trkpt><trkpt lat="46.45024097366236" lon="11.33621936174564"><ele>231.6</ele><time>2026-04-23T13:03:19.998Z</time></trkpt><trkpt lat="46.450141453891355" lon="11.336247545618821"><ele>231.40000000000003</ele><time>2026-04-23T13:03:20.998Z</time></trkpt><trkpt lat="46.450031569959854" lon="11.336278292938188"><ele>231.20000000000002</ele><time>2026-04-23T13:03:21.998Z</time></trkpt><trkpt lat="46.44992206835017" lon="11.336312293499004"><ele>231.0</ele><time>2026-04-23T13:03:22.998Z</time></trkpt><trkpt lat="46.44981230029065" lon="11.3363412080234"><ele>231.0</ele><time>2026-04-23T13:03:23.998Z</time></trkpt><trkpt lat="46.4497134498824" lon="11.336369505576878"><ele>231.0</ele><time>2026-04-23T13:03:24.998Z</time></trkpt><trkpt lat="46.44962380198469" lon="11.336394586875189"><ele>231.0</ele><time>2026-04-23T13:03:25.998Z</time></trkpt><trkpt lat="46.44953656785395" lon="11.336418515790918"><ele>231.0</ele><time>2026-04-23T13:03:26.998Z</time></trkpt><trkpt lat="46.44945230459501" lon="11.336442561197078"><ele>231.0</ele><time>2026-04-23T13:03:27.998Z</time></trkpt><trkpt lat="46.44937936338342" lon="11.336460061934993"><ele>231.0</ele><time>2026-04-23T13:03:28.998Z</time></trkpt><trkpt lat="46.44931064314094" lon="11.33647827339272"><ele>231.4</ele><time>2026-04-23T13:03:29.998Z</time></trkpt><trkpt lat="46.44924868451568" lon="11.336496368888676"><ele>231.8</ele><time>2026-04-23T13:03:30.998Z</time></trkpt><trkpt lat="46.44913175397191" lon="11.336529554652827"><ele>232.20000000000002</ele><time>2026-04-23T13:03:32.997Z</time></trkpt><trkpt lat="46.44899931149157" lon="11.336564199773104"><ele>232.60000000000002</ele><time>2026-04-23T13:03:34.997Z</time></trkpt><trkpt lat="46.44892035645025" lon="11.336588735384844"><ele>233.0</ele><time>2026-04-23T13:03:35.997Z</time></trkpt><trkpt lat="46.448833074485165" lon="11.336613074657745"><ele>232.4</ele><time>2026-04-23T13:03:36.997Z</time></trkpt><trkpt lat="46.44873733544408" lon="11.336639071352703"><ele>231.8</ele><time>2026-04-23T13:03:37.997Z</time></trkpt><trkpt lat="46.44863224023832" lon="11.33667032856272"><ele>231.2</ele><time>2026-04-23T13:03:38.997Z</time></trkpt><trkpt lat="46.448523723196786" lon="11.336698632571235"><ele>230.6</ele><time>2026-04-23T13:03:39.997Z</time></trkpt><trkpt lat="46.44840647215406" lon="11.336731777377306"><ele>230.0</ele><time>2026-04-23T13:03:40.997Z</time></trkpt><trkpt lat="46.44828376268144" lon="11.336764861213604"><ele>230.0</ele><time>2026-04-23T13:03:41.997Z</time></trkpt><trkpt lat="46.448152190556335" lon="11.336801192073668"><ele>230.0</ele><time>2026-04-23T13:03:42.997Z</time></trkpt><trkpt lat="46.448018181184054" lon="11.336838112811128"><ele>230.0</ele><time>2026-04-23T13:03:43.997Z</time></trkpt><trkpt lat="46.44787189325388" lon="11.336877511887065"><ele>230.0</ele><time>2026-04-23T13:03:44.997Z</time></trkpt><trkpt lat="46.44772779997035" lon="11.336920127419294"><ele>229.66666666666669</ele><time>2026-04-23T13:03:45.999Z</time></trkpt><trkpt lat="46.4475824072738" lon="11.336963341305177"><ele>229.33333333333331</ele><time>2026-04-23T13:03:46.999Z</time></trkpt><trkpt lat="46.44743209756101" lon="11.33700550874619"><ele>229.0</ele><time>2026-04-23T13:03:47.999Z</time></trkpt><trkpt lat="46.44727741916102" lon="11.337045271280974"><ele>229.0</ele><time>2026-04-23T13:03:48.999Z</time></trkpt><trkpt lat="46.4471264875696" lon="11.337090439865314"><ele>229.0</ele><time>2026-04-23T13:03:49.999Z</time></trkpt><trkpt lat="46.446965160076594" lon="11.337134461880819"><ele>229.0</ele><time>2026-04-23T13:03:50.999Z</time></trkpt><trkpt lat="46.446805337183186" lon="11.337180088778517"><ele>228.66666666666666</ele><time>2026-04-23T13:03:51.999Z</time></trkpt><trkpt lat="46.44665215178068" lon="11.337225723686988"><ele>228.33333333333331</ele><time>2026-04-23T13:03:52.999Z</time></trkpt><trkpt lat="46.446487691843274" lon="11.33726966559752"><ele>228.0</ele><time>2026-04-23T13:03:53.999Z</time></trkpt><trkpt lat="46.44632380907788" lon="11.337315253764283"><ele>228.33333333333331</ele><time>2026-04-23T13:03:54.999Z</time></trkpt><trkpt lat="46.44616565027665" lon="11.33736029273311"><ele>228.66666666666666</ele><time>2026-04-23T13:03:55.999Z</time></trkpt><trkpt lat="46.446006038585814" lon="11.337411450028346"><ele>229.0</ele><time>2026-04-23T13:03:56.999Z</time></trkpt><trkpt lat="46.445848321809585" lon="11.337466646704009"><ele>229.0</ele><time>2026-04-23T13:03:57.999Z</time></trkpt><trkpt lat="46.44569423336696" lon="11.337530515720896"><ele>229.0</ele><time>2026-04-23T13:03:58.999Z</time></trkpt><trkpt lat="46.44554499991744" lon="11.337604571991394"><ele>229.0</ele><time>2026-04-23T13:03:59.999Z</time></trkpt><trkpt lat="46.44540456137401" lon="11.337689996552205"><ele>229.33333333333331</ele><time>2026-04-23T13:04:00.999Z</time></trkpt><trkpt lat="46.44526822751692" lon="11.337786407044485"><ele>229.66666666666669</ele><time>2026-04-23T13:04:01.999Z</time></trkpt><trkpt lat="46.44513417834364" lon="11.337893326089327"><ele>230.0</ele><time>2026-04-23T13:04:02.999Z</time></trkpt><trkpt lat="46.44500197610978" lon="11.338008913521115"><ele>230.0</ele><time>2026-04-23T13:04:03.999Z</time></trkpt><trkpt lat="46.44486863188525" lon="11.33813586138066"><ele>230.0</ele><time>2026-04-23T13:04:04.999Z</time></trkpt><trkpt lat="46.44472899159504" lon="11.338266194508916"><ele>230.0</ele><time>2026-04-23T13:04:05.999Z</time></trkpt><trkpt lat="46.444590039814685" lon="11.338413454636187"><ele>230.0</ele><time>2026-04-23T13:04:06.999Z</time></trkpt><trkpt lat="46.444453708582664" lon="11.338576832725684"><ele>230.0</ele><time>2026-04-23T13:04:07.999Z</time></trkpt><trkpt lat="46.44432465070824" lon="11.338760648395738"><ele>230.0</ele><time>2026-04-23T13:04:08.999Z</time></trkpt><trkpt lat="46.444198116645005" lon="11.33894986363806"><ele>230.33333333333334</ele><time>2026-04-23T13:04:09.999Z</time></trkpt><trkpt lat="46.44407142298719" lon="11.339151115348587"><ele>230.66666666666669</ele><time>2026-04-23T13:04:10.999Z</time></trkpt><trkpt lat="46.44394245693876" lon="11.339352642473479"><ele>231.0</ele><time>2026-04-23T13:04:11.999Z</time></trkpt><trkpt lat="46.44381364938482" lon="11.339560579473297"><ele>229.66666666666669</ele><time>2026-04-23T13:04:12.999Z</time></trkpt><trkpt lat="46.443685422805174" lon="11.339765018919104"><ele>228.33333333333334</ele><time>2026-04-23T13:04:13.999Z</time></trkpt><trkpt lat="46.44356040425181" lon="11.339973231896176"><ele>227.0</ele><time>2026-04-23T13:04:14.999Z</time></trkpt><trkpt lat="46.44343919563509" lon="11.34018076484394"><ele>227.0</ele><time>2026-04-23T13:04:15.999Z</time></trkpt><trkpt lat="46.44331496545682" lon="11.340387088150134"><ele>227.0</ele><time>2026-04-23T13:04:16.999Z</time></trkpt><trkpt lat="46.443197336416" lon="11.340585861391551"><ele>227.0</ele><time>2026-04-23T13:04:17.999Z</time></trkpt><trkpt lat="46.443087860554606" lon="11.340771559688722"><ele>227.0</ele><time>2026-04-23T13:04:18.999Z</time></trkpt><trkpt lat="46.442986189494746" lon="11.340944983061314"><ele>227.0</ele><time>2026-04-23T13:04:19.999Z</time></trkpt><trkpt lat="46.44289149798167" lon="11.341102779225318"><ele>227.0</ele><time>2026-04-23T13:04:20.999Z</time></trkpt><trkpt lat="46.442805455064" lon="11.341247429189805"><ele>227.0</ele><time>2026-04-23T13:04:21.999Z</time></trkpt><trkpt lat="46.44272213855264" lon="11.34138460319584"><ele>227.2</ele><time>2026-04-23T13:04:22.999Z</time></trkpt><trkpt lat="46.442642438125844" lon="11.341516098341906"><ele>227.39999999999998</ele><time>2026-04-23T13:04:23.999Z</time></trkpt><trkpt lat="46.44257304503918" lon="11.341648407732437"><ele>227.60000000000002</ele><time>2026-04-23T13:04:24.999Z</time></trkpt><trkpt lat="46.44252308766919" lon="11.341780679781007"><ele>227.8</ele><time>2026-04-23T13:04:25.999Z</time></trkpt><trkpt lat="46.442490385724" lon="11.34190625920817"><ele>228.0</ele><time>2026-04-23T13:04:26.999Z</time></trkpt><trkpt lat="46.442473553167176" lon="11.342034733293039"><ele>228.0</ele><time>2026-04-23T13:04:27.999Z</time></trkpt><trkpt lat="46.44246667048257" lon="11.34216280620167"><ele>228.0</ele><time>2026-04-23T13:04:28.999Z</time></trkpt><trkpt lat="46.442469215233594" lon="11.342283511117033"><ele>228.0</ele><time>2026-04-23T13:04:29.999Z</time></trkpt><trkpt lat="46.44248038791677" lon="11.342402461349538"><ele>228.0</ele><time>2026-04-23T13:04:30.999Z</time></trkpt><trkpt lat="46.44249729610163" lon="11.342518178224461"><ele>228.0</ele><time>2026-04-23T13:04:31.999Z</time></trkpt><trkpt lat="46.442518979925325" lon="11.342619189134052"><ele>228.0</ele><time>2026-04-23T13:04:32.999Z</time></trkpt><trkpt lat="46.442546131114106" lon="11.342712186367947"><ele>229.0</ele><time>2026-04-23T13:04:33.999Z</time></trkpt><trkpt lat="46.44256800105678" lon="11.34280276469552"><ele>230.0</ele><time>2026-04-23T13:04:34.999Z</time></trkpt><trkpt lat="46.442588457159545" lon="11.342923288907855"><ele>231.0</ele><time>2026-04-23T13:04:36.999Z</time></trkpt><trkpt lat="46.442530981883124" lon="11.343011783190468"><ele>232.0</ele><time>2026-04-23T13:04:37.999Z</time></trkpt><trkpt lat="46.44240938830305" lon="11.343059684982371"><ele>233.0</ele><time>2026-04-23T13:04:39.999Z</time></trkpt><trkpt lat="46.442317776265" lon="11.343085788113257"><ele>233.25</ele><time>2026-04-23T13:04:40.999Z</time></trkpt><trkpt lat="46.442204386840544" lon="11.343102740827408"><ele>233.5</ele><time>2026-04-23T13:04:41.999Z</time></trkpt><trkpt lat="46.442090014371004" lon="11.343124293053599"><ele>233.75</ele><time>2026-04-23T13:04:42.998Z</time></trkpt><trkpt lat="46.44197725691976" lon="11.34315625421882"><ele>234.0</ele><time>2026-04-23T13:04:43.998Z</time></trkpt><trkpt lat="46.44185453373996" lon="11.343188702786144"><ele>234.0</ele><time>2026-04-23T13:04:44.998Z</time></trkpt><trkpt lat="46.441727091779576" lon="11.343226135882777"><ele>234.0</ele><time>2026-04-23T13:04:45.998Z</time></trkpt><trkpt lat="46.4415970893451" lon="11.343269977224455"><ele>234.0</ele><time>2026-04-23T13:04:46.998Z</time></trkpt><trkpt lat="46.44146584154548" lon="11.343320847683723"><ele>234.0</ele><time>2026-04-23T13:04:47.998Z</time></trkpt><trkpt lat="46.44133899093393" lon="11.343372481604051"><ele>233.25</ele><time>2026-04-23T13:04:48.998Z</time></trkpt><trkpt lat="46.4412173448882" lon="11.343423918754326"><ele>232.5</ele><time>2026-04-23T13:04:49.998Z</time></trkpt><trkpt lat="46.44110318915136" lon="11.343473451629558"><ele>231.75</ele><time>2026-04-23T13:04:50.998Z</time></trkpt><trkpt lat="46.44099842176082" lon="11.343522456016316"><ele>231.0</ele><time>2026-04-23T13:04:51.998Z</time></trkpt><trkpt lat="46.440901247414345" lon="11.343569348464529"><ele>231.0</ele><time>2026-04-23T13:04:52.998Z</time></trkpt><trkpt lat="46.44080990844439" lon="11.343611792290362"><ele>231.00000000000003</ele><time>2026-04-23T13:04:53.998Z</time></trkpt><trkpt lat="46.440718169293326" lon="11.343655401440355"><ele>231.00000000000003</ele><time>2026-04-23T13:04:54.998Z</time></trkpt><trkpt lat="46.44062895840206" lon="11.343696719985644"><ele>231.0</ele><time>2026-04-23T13:04:55.998Z</time></trkpt><trkpt lat="46.44054197270327" lon="11.343739487576174"><ele>231.0</ele><time>2026-04-23T13:04:56.998Z</time></trkpt><trkpt lat="46.44043925556094" lon="11.343792695353779"><ele>232.0</ele><time>2026-04-23T13:04:57.998Z</time></trkpt><trkpt lat="46.44030979468378" lon="11.343852110124901"><ele>233.0</ele><time>2026-04-23T13:04:58.998Z</time></trkpt><trkpt lat="46.440144073603506" lon="11.343885553197365"><ele>234.0</ele><time>2026-04-23T13:04:59.998Z</time></trkpt><trkpt lat="46.43997747797686" lon="11.343934156593038"><ele>234.0</ele><time>2026-04-23T13:05:00.998Z</time></trkpt><trkpt lat="46.439824891092265" lon="11.343998705375846"><ele>234.0</ele><time>2026-04-23T13:05:01.998Z</time></trkpt><trkpt lat="46.43964335784946" lon="11.344027658104386"><ele>234.0</ele><time>2026-04-23T13:05:02.998Z</time></trkpt><trkpt lat="46.439446903065054" lon="11.344078275358322"><ele>234.66666666666669</ele><time>2026-04-23T13:05:03.998Z</time></trkpt><trkpt lat="46.43923408805166" lon="11.344116204707877"><ele>235.33333333333334</ele><time>2026-04-23T13:05:04.998Z</time></trkpt><trkpt lat="46.43902028546825" lon="11.344156394703797"><ele>236.0</ele><time>2026-04-23T13:05:05.998Z</time></trkpt><trkpt lat="46.43881307672735" lon="11.34420464413881"><ele>234.66666666666669</ele><time>2026-04-23T13:05:06.998Z</time></trkpt><trkpt lat="46.438607770023665" lon="11.344247296941257"><ele>233.33333333333331</ele><time>2026-04-23T13:05:07.998Z</time></trkpt><trkpt lat="46.438401922284285" lon="11.344288473818823"><ele>232.0</ele><time>2026-04-23T13:05:08.998Z</time></trkpt><trkpt lat="46.43819635420331" lon="11.344329521878146"><ele>232.0</ele><time>2026-04-23T13:05:09.998Z</time></trkpt><trkpt lat="46.43799435178691" lon="11.344372899848269"><ele>232.0</ele><time>2026-04-23T13:05:10.998Z</time></trkpt><trkpt lat="46.437795484434744" lon="11.344427309194414"><ele>232.0</ele><time>2026-04-23T13:05:11.998Z</time></trkpt><trkpt lat="46.43759748401641" lon="11.344493806493714"><ele>231.66666666666666</ele><time>2026-04-23T13:05:12.998Z</time></trkpt><trkpt lat="46.4374018853555" lon="11.34457100167364"><ele>231.33333333333331</ele><time>2026-04-23T13:05:13.998Z</time></trkpt><trkpt lat="46.43720532471474" lon="11.344655804891813"><ele>231.0</ele><time>2026-04-23T13:05:14.998Z</time></trkpt><trkpt lat="46.437013333543085" lon="11.344748910931113"><ele>229.66666666666669</ele><time>2026-04-23T13:05:15.998Z</time></trkpt><trkpt lat="46.436829870233446" lon="11.344847773767079"><ele>228.33333333333334</ele><time>2026-04-23T13:05:16.998Z</time></trkpt><trkpt lat="46.4366538608414" lon="11.344951641885151"><ele>227.0</ele><time>2026-04-23T13:05:17.998Z</time></trkpt><trkpt lat="46.436483929429826" lon="11.345056774821927"><ele>227.0</ele><time>2026-04-23T13:05:18.998Z</time></trkpt><trkpt lat="46.43632151193136" lon="11.345166340491826"><ele>227.0</ele><time>2026-04-23T13:05:19.998Z</time></trkpt><trkpt lat="46.43615732798599" lon="11.345283444630903"><ele>227.0</ele><time>2026-04-23T13:05:20.998Z</time></trkpt><trkpt lat="46.43599704721397" lon="11.345410656716018"><ele>227.66666666666669</ele><time>2026-04-23T13:05:21.998Z</time></trkpt><trkpt lat="46.435842308239" lon="11.34554277005127"><ele>228.33333333333331</ele><time>2026-04-23T13:05:22.998Z</time></trkpt><trkpt lat="46.43568506993798" lon="11.345673789616386"><ele>229.0</ele><time>2026-04-23T13:05:23.998Z</time></trkpt><trkpt lat="46.43552360687599" lon="11.345805877491618"><ele>228.0</ele><time>2026-04-23T13:05:24.998Z</time></trkpt><trkpt lat="46.4353640433314" lon="11.345935529097714"><ele>227.0</ele><time>2026-04-23T13:05:25.998Z</time></trkpt><trkpt lat="46.43520097579257" lon="11.346062722039127"><ele>226.0</ele><time>2026-04-23T13:05:26.998Z</time></trkpt><trkpt lat="46.43504114651614" lon="11.346190566519017"><ele>226.0</ele><time>2026-04-23T13:05:27.998Z</time></trkpt><trkpt lat="46.43487911751518" lon="11.346310776845586"><ele>226.0</ele><time>2026-04-23T13:05:28.997Z</time></trkpt><trkpt lat="46.434719307518506" lon="11.34642177196794"><ele>226.0</ele><time>2026-04-23T13:05:29.997Z</time></trkpt><trkpt lat="46.4345594621552" lon="11.34652199553331"><ele>226.0</ele><time>2026-04-23T13:05:30.997Z</time></trkpt><trkpt lat="46.43440125242581" lon="11.34660428505961"><ele>226.0</ele><time>2026-04-23T13:05:31.997Z</time></trkpt><trkpt lat="46.434243730293545" lon="11.346668251674284"><ele>226.0</ele><time>2026-04-23T13:05:32.997Z</time></trkpt><trkpt lat="46.43408796092527" lon="11.346698339699314"><ele>226.0</ele><time>2026-04-23T13:05:33.997Z</time></trkpt><trkpt lat="46.433928002360176" lon="11.346708276070387"><ele>226.0</ele><time>2026-04-23T13:05:34.997Z</time></trkpt><trkpt lat="46.43376942566111" lon="11.346689446517152"><ele>226.0</ele><time>2026-04-23T13:05:35.997Z</time></trkpt><trkpt lat="46.43361686061042" lon="11.346660616421724"><ele>230.25</ele><time>2026-04-23T13:05:36.997Z</time></trkpt><trkpt lat="46.433469072490304" lon="11.346616550263688"><ele>234.5</ele><time>2026-04-23T13:05:37.997Z</time></trkpt><trkpt lat="46.43331869921645" lon="11.346567403268008"><ele>238.75</ele><time>2026-04-23T13:05:38.997Z</time></trkpt><trkpt lat="46.43318822783671" lon="11.346526935652546"><ele>243.0</ele><time>2026-04-23T13:05:39.997Z</time></trkpt><trkpt lat="46.4330624209661" lon="11.346503209328382"><ele>238.5</ele><time>2026-04-23T13:05:40.997Z</time></trkpt><trkpt lat="46.432946608150715" lon="11.346436402594154"><ele>234.0</ele><time>2026-04-23T13:05:41.997Z</time></trkpt><trkpt lat="46.43284731607194" lon="11.346293145214492"><ele>229.5</ele><time>2026-04-23T13:05:42.997Z</time></trkpt><trkpt lat="46.43270747377076" lon="11.346237586363147"><ele>225.0</ele><time>2026-04-23T13:05:43.997Z</time></trkpt><trkpt lat="46.43254387488701" lon="11.346270026126973"><ele>225.0</ele><time>2026-04-23T13:05:44.997Z</time></trkpt><trkpt lat="46.43237673251086" lon="11.346248847575803"><ele>225.0</ele><time>2026-04-23T13:05:45.997Z</time></trkpt><trkpt lat="46.432222230548156" lon="11.34618548299037"><ele>225.0</ele><time>2026-04-23T13:05:46.997Z</time></trkpt><trkpt lat="46.432087909586826" lon="11.346121611564069"><ele>228.0</ele><time>2026-04-23T13:05:47.997Z</time></trkpt><trkpt lat="46.43196089763026" lon="11.346060201213048"><ele>231.0</ele><time>2026-04-23T13:05:48.997Z</time></trkpt><trkpt lat="46.4318336298484" lon="11.346003526662795"><ele>234.0</ele><time>2026-04-23T13:05:49.997Z</time></trkpt><trkpt lat="46.431706668518025" lon="11.345947342050701"><ele>237.0</ele><time>2026-04-23T13:05:50.999Z</time></trkpt><trkpt lat="46.43158603281224" lon="11.345891080698037"><ele>237.0</ele><time>2026-04-23T13:05:51.999Z</time></trkpt><trkpt lat="46.43146218961587" lon="11.345834764299731"><ele>237.0</ele><time>2026-04-23T13:05:52.999Z</time></trkpt><trkpt lat="46.43133857137788" lon="11.345782081105863"><ele>237.0</ele><time>2026-04-23T13:05:53.999Z</time></trkpt><trkpt lat="46.43121324997867" lon="11.345725454064137"><ele>237.0</ele><time>2026-04-23T13:05:54.999Z</time></trkpt><trkpt lat="46.431084851473514" lon="11.345673634991552"><ele>236.75</ele><time>2026-04-23T13:05:55.999Z</time></trkpt><trkpt lat="46.43095493159106" lon="11.345622533091658"><ele>236.5</ele><time>2026-04-23T13:05:56.999Z</time></trkpt><trkpt lat="46.43083384775957" lon="11.345563059897014"><ele>236.25</ele><time>2026-04-23T13:05:57.999Z</time></trkpt><trkpt lat="46.43070603890489" lon="11.345504747652978"><ele>236.0</ele><time>2026-04-23T13:05:58.999Z</time></trkpt><trkpt lat="46.43058580108433" lon="11.345450868205537"><ele>236.5</ele><time>2026-04-23T13:05:59.999Z</time></trkpt><trkpt lat="46.43047368736918" lon="11.3454015600496"><ele>237.0</ele><time>2026-04-23T13:06:00.999Z</time></trkpt><trkpt lat="46.43037560459246" lon="11.34532088308574"><ele>237.5</ele><time>2026-04-23T13:06:01.999Z</time></trkpt><trkpt lat="46.43027525613145" lon="11.345233233866901"><ele>238.0</ele><time>2026-04-23T13:06:02.999Z</time></trkpt><trkpt lat="46.430183587219" lon="11.345117473301064"><ele>238.0</ele><time>2026-04-23T13:06:03.999Z</time></trkpt><trkpt lat="46.430088467305886" lon="11.344985237836509"><ele>238.0</ele><time>2026-04-23T13:06:04.999Z</time></trkpt><trkpt lat="46.42999804702193" lon="11.344843092799204"><ele>238.0</ele><time>2026-04-23T13:06:05.999Z</time></trkpt><trkpt lat="46.4299087385006" lon="11.344693296272691"><ele>238.0</ele><time>2026-04-23T13:06:06.999Z</time></trkpt><trkpt lat="46.4298184395503" lon="11.344549863744524"><ele>238.25</ele><time>2026-04-23T13:06:07.999Z</time></trkpt><trkpt lat="46.42972956562534" lon="11.344408456527157"><ele>238.5</ele><time>2026-04-23T13:06:08.999Z</time></trkpt><trkpt lat="46.429647461048795" lon="11.344275783596732"><ele>238.75</ele><time>2026-04-23T13:06:09.999Z</time></trkpt><trkpt lat="46.429577228430965" lon="11.344140838793999"><ele>239.0</ele><time>2026-04-23T13:06:10.999Z</time></trkpt><trkpt lat="46.42952004657164" lon="11.344022049053239"><ele>239.50000000000003</ele><time>2026-04-23T13:06:11.999Z</time></trkpt><trkpt lat="46.429469999524855" lon="11.343908296504347"><ele>240.0</ele><time>2026-04-23T13:06:12.999Z</time></trkpt><trkpt lat="46.429429443293074" lon="11.343796341202598"><ele>240.5</ele><time>2026-04-23T13:06:13.999Z</time></trkpt><trkpt lat="46.4293901721229" lon="11.343687141918963"><ele>241.0</ele><time>2026-04-23T13:06:14.999Z</time></trkpt><trkpt lat="46.429341629146485" lon="11.343582579196916"><ele>241.50000000000003</ele><time>2026-04-23T13:06:15.999Z</time></trkpt><trkpt lat="46.42929799102832" lon="11.34347253840808"><ele>242.0</ele><time>2026-04-23T13:06:16.999Z</time></trkpt><trkpt lat="46.429253611589026" lon="11.343368339787414"><ele>242.0</ele><time>2026-04-23T13:06:17.999Z</time></trkpt><trkpt lat="46.429209354330084" lon="11.343263553747276"><ele>242.0</ele><time>2026-04-23T13:06:18.999Z</time></trkpt><trkpt lat="46.429164659964364" lon="11.34315157977841"><ele>242.0</ele><time>2026-04-23T13:06:19.999Z</time></trkpt><trkpt lat="46.42911649392079" lon="11.343033311536049"><ele>242.0</ele><time>2026-04-23T13:06:20.999Z</time></trkpt><trkpt lat="46.429074412152204" lon="11.342910959070997"><ele>242.0</ele><time>2026-04-23T13:06:21.999Z</time></trkpt><trkpt lat="46.42902789557401" lon="11.342786037395797"><ele>242.0</ele><time>2026-04-23T13:06:22.999Z</time></trkpt><trkpt lat="46.42897964893404" lon="11.342662568392294"><ele>242.0</ele><time>2026-04-23T13:06:23.999Z</time></trkpt><trkpt lat="46.42893045292087" lon="11.342537060175955"><ele>242.0</ele><time>2026-04-23T13:06:24.999Z</time></trkpt><trkpt lat="46.428883465441864" lon="11.342410136412164"><ele>242.0</ele><time>2026-04-23T13:06:25.999Z</time></trkpt><trkpt lat="46.42882776320914" lon="11.342280812878322"><ele>242.0</ele><time>2026-04-23T13:06:26.999Z</time></trkpt><trkpt lat="46.42877838231605" lon="11.342151949518632"><ele>243.2</ele><time>2026-04-23T13:06:27.999Z</time></trkpt><trkpt lat="46.42872893835711" lon="11.342027734708818"><ele>244.39999999999998</ele><time>2026-04-23T13:06:28.999Z</time></trkpt><trkpt lat="46.428680741391524" lon="11.341905128706472"><ele>245.60000000000002</ele><time>2026-04-23T13:06:29.999Z</time></trkpt><trkpt lat="46.4286348310798" lon="11.341781665171109"><ele>246.8</ele><time>2026-04-23T13:06:30.999Z</time></trkpt><trkpt lat="46.42859264689013" lon="11.341655130045396"><ele>248.0</ele><time>2026-04-23T13:06:31.999Z</time></trkpt><trkpt lat="46.42854437552774" lon="11.34153810047272"><ele>248.00000000000003</ele><time>2026-04-23T13:06:32.999Z</time></trkpt><trkpt lat="46.42850099358532" lon="11.341416861303987"><ele>248.0</ele><time>2026-04-23T13:06:33.999Z</time></trkpt><trkpt lat="46.428464702567005" lon="11.341303575051477"><ele>248.0</ele><time>2026-04-23T13:06:34.999Z</time></trkpt><trkpt lat="46.42843305228188" lon="11.341200454703763"><ele>248.0</ele><time>2026-04-23T13:06:35.999Z</time></trkpt><trkpt lat="46.42840155142276" lon="11.34109306697518"><ele>248.00000000000003</ele><time>2026-04-23T13:06:36.999Z</time></trkpt><trkpt lat="46.428376700270164" lon="11.340971931013494"><ele>248.0</ele><time>2026-04-23T13:06:37.999Z</time></trkpt><trkpt lat="46.42835034646164" lon="11.340847979949968"><ele>247.8</ele><time>2026-04-23T13:06:38.999Z</time></trkpt><trkpt lat="46.42832966922446" lon="11.340750285313904"><ele>247.60000000000002</ele><time>2026-04-23T13:06:39.999Z</time></trkpt><trkpt lat="46.42829645307111" lon="11.340558177480341"><ele>247.39999999999998</ele><time>2026-04-23T13:06:41.999Z</time></trkpt><trkpt lat="46.42826227585455" lon="11.340408943233035"><ele>247.2</ele><time>2026-04-23T13:06:42.998Z</time></trkpt><trkpt lat="46.428235671576005" lon="11.34024478068648"><ele>247.0</ele><time>2026-04-23T13:06:43.998Z</time></trkpt><trkpt lat="46.428218421866276" lon="11.34007007384254"><ele>246.75</ele><time>2026-04-23T13:06:44.998Z</time></trkpt><trkpt lat="46.42820303053961" lon="11.339882503473799"><ele>246.5</ele><time>2026-04-23T13:06:45.998Z</time></trkpt><trkpt lat="46.42819006128144" lon="11.3396944191416"><ele>246.25</ele><time>2026-04-23T13:06:46.998Z</time></trkpt><trkpt lat="46.42817128299382" lon="11.339509628301066"><ele>246.0</ele><time>2026-04-23T13:06:47.998Z</time></trkpt><trkpt lat="46.42814834350784" lon="11.339323160874658"><ele>245.5</ele><time>2026-04-23T13:06:48.998Z</time></trkpt><trkpt lat="46.42811879438555" lon="11.339140724049509"><ele>245.0</ele><time>2026-04-23T13:06:49.998Z</time></trkpt><trkpt lat="46.428085199422796" lon="11.338961734749368"><ele>244.5</ele><time>2026-04-23T13:06:50.998Z</time></trkpt><trkpt lat="46.42804208747321" lon="11.338801138277544"><ele>244.0</ele><time>2026-04-23T13:06:51.998Z</time></trkpt><trkpt lat="46.42799693447096" lon="11.338657943288508"><ele>244.25</ele><time>2026-04-23T13:06:52.998Z</time></trkpt><trkpt lat="46.42795247834281" lon="11.338517370687171"><ele>244.5</ele><time>2026-04-23T13:06:53.998Z</time></trkpt><trkpt lat="46.42790241245903" lon="11.338374423960905"><ele>244.75</ele><time>2026-04-23T13:06:54.998Z</time></trkpt><trkpt lat="46.42782990153102" lon="11.338218512833016"><ele>245.0</ele><time>2026-04-23T13:06:55.998Z</time></trkpt><trkpt lat="46.42774651524787" lon="11.338050252139086"><ele>245.5</ele><time>2026-04-23T13:06:56.998Z</time></trkpt><trkpt lat="46.427654669034695" lon="11.337887658464929"><ele>246.0</ele><time>2026-04-23T13:06:57.998Z</time></trkpt><trkpt lat="46.42755908033192" lon="11.33774782961752"><ele>246.5</ele><time>2026-04-23T13:06:58.998Z</time></trkpt><trkpt lat="46.42746042168107" lon="11.337635386178576"><ele>247.0</ele><time>2026-04-23T13:06:59.998Z</time></trkpt><trkpt lat="46.42736854372538" lon="11.33754028651584"><ele>246.99999999999997</ele><time>2026-04-23T13:07:00.998Z</time></trkpt><trkpt lat="46.427294330402034" lon="11.337463243979046"><ele>247.0</ele><time>2026-04-23T13:07:01.998Z</time></trkpt><trkpt lat="46.42724285950649" lon="11.337399635187994"><ele>247.0</ele><time>2026-04-23T13:07:03.998Z</time></trkpt><trkpt lat="46.427157211266994" lon="11.337272146180467"><ele>247.0</ele><time>2026-04-23T13:07:39.997Z</time></trkpt><trkpt lat="46.42709821097825" lon="11.337204484108167"><ele>246.99999999999997</ele><time>2026-04-23T13:07:40.997Z</time></trkpt><trkpt lat="46.42703351384647" lon="11.33714169647972"><ele>247.0</ele><time>2026-04-23T13:07:41.997Z</time></trkpt><trkpt lat="46.42694571453696" lon="11.337067231447834"><ele>247.0</ele><time>2026-04-23T13:07:42.997Z</time></trkpt><trkpt lat="46.42687509731597" lon="11.336973239463243"><ele>247.0</ele><time>2026-04-23T13:07:43.997Z</time></trkpt><trkpt lat="46.42678239454323" lon="11.336876734068339"><ele>247.0</ele><time>2026-04-23T13:07:44.997Z</time></trkpt><trkpt lat="46.426695328248414" lon="11.336771905005179"><ele>247.0</ele><time>2026-04-23T13:07:45.997Z</time></trkpt><trkpt lat="46.4265956022223" lon="11.336671057774957"><ele>247.0</ele><time>2026-04-23T13:07:46.997Z</time></trkpt><trkpt lat="46.42649904042171" lon="11.336558993666861"><ele>247.0</ele><time>2026-04-23T13:07:47.997Z</time></trkpt><trkpt lat="46.42639372993014" lon="11.336454267457187"><ele>247.0</ele><time>2026-04-23T13:07:48.997Z</time></trkpt><trkpt lat="46.426288075735535" lon="11.336337430949884"><ele>247.0</ele><time>2026-04-23T13:07:49.997Z</time></trkpt><trkpt lat="46.42617838127299" lon="11.33621708872106"><ele>247.0</ele><time>2026-04-23T13:07:50.997Z</time></trkpt><trkpt lat="46.42607026799404" lon="11.336096677314753"><ele>247.25</ele><time>2026-04-23T13:07:51.997Z</time></trkpt><trkpt lat="46.425961091286766" lon="11.335972443973198"><ele>247.5</ele><time>2026-04-23T13:07:52.997Z</time></trkpt><trkpt lat="46.42584879289489" lon="11.33584891379246"><ele>247.75</ele><time>2026-04-23T13:07:53.997Z</time></trkpt><trkpt lat="46.425737818214316" lon="11.335726901020298"><ele>248.0</ele><time>2026-04-23T13:07:54.997Z</time></trkpt><trkpt lat="46.42562528998166" lon="11.335600224428699"><ele>246.75</ele><time>2026-04-23T13:07:55.997Z</time></trkpt><trkpt lat="46.42551469634677" lon="11.335470360900434"><ele>245.5</ele><time>2026-04-23T13:07:56.999Z</time></trkpt><trkpt lat="46.42540198951344" lon="11.335351214583076"><ele>244.25</ele><time>2026-04-23T13:07:57.999Z</time></trkpt><trkpt lat="46.42530268622525" lon="11.33523597039587"><ele>243.0</ele><time>2026-04-23T13:07:58.999Z</time></trkpt><trkpt lat="46.42520280009561" lon="11.335125355020917"><ele>243.0</ele><time>2026-04-23T13:07:59.999Z</time></trkpt><trkpt lat="46.42511133031449" lon="11.335021070183444"><ele>243.0</ele><time>2026-04-23T13:08:00.999Z</time></trkpt><trkpt lat="46.42501766912988" lon="11.33491877728842"><ele>243.0</ele><time>2026-04-23T13:08:01.999Z</time></trkpt><trkpt lat="46.424928867413584" lon="11.334825721256967"><ele>243.0</ele><time>2026-04-23T13:08:02.999Z</time></trkpt><trkpt lat="46.42484406012104" lon="11.334731881185801"><ele>242.83333333333334</ele><time>2026-04-23T13:08:03.999Z</time></trkpt><trkpt lat="46.424766717288016" lon="11.334651627029661"><ele>242.66666666666669</ele><time>2026-04-23T13:08:04.999Z</time></trkpt><trkpt lat="46.42469445230337" lon="11.334575713433452"><ele>242.5</ele><time>2026-04-23T13:08:05.999Z</time></trkpt><trkpt lat="46.424626255948766" lon="11.33449970027294"><ele>242.33333333333334</ele><time>2026-04-23T13:08:06.999Z</time></trkpt><trkpt lat="46.42455937822615" lon="11.334425019602023"><ele>242.16666666666669</ele><time>2026-04-23T13:08:07.999Z</time></trkpt><trkpt lat="46.42449758339029" lon="11.33433301337192"><ele>242.0</ele><time>2026-04-23T13:08:08.999Z</time></trkpt><trkpt lat="46.42443609132611" lon="11.334227366279164"><ele>242.0</ele><time>2026-04-23T13:08:09.999Z</time></trkpt><trkpt lat="46.424353193165835" lon="11.334108162968237"><ele>242.0</ele><time>2026-04-23T13:08:10.999Z</time></trkpt><trkpt lat="46.424241824707934" lon="11.334008305264149"><ele>242.0</ele><time>2026-04-23T13:08:11.999Z</time></trkpt><trkpt lat="46.42413956424936" lon="11.333917980264264"><ele>242.0</ele><time>2026-04-23T13:08:12.999Z</time></trkpt><trkpt lat="46.4240391802012" lon="11.33384508287429"><ele>241.8</ele><time>2026-04-23T13:08:13.999Z</time></trkpt><trkpt lat="46.423940294969505" lon="11.33375652838844"><ele>241.6</ele><time>2026-04-23T13:08:14.999Z</time></trkpt><trkpt lat="46.42385385450198" lon="11.333661576448254"><ele>241.40000000000003</ele><time>2026-04-23T13:08:15.999Z</time></trkpt><trkpt lat="46.42377878234528" lon="11.333575995653552"><ele>241.20000000000002</ele><time>2026-04-23T13:08:16.999Z</time></trkpt><trkpt lat="46.42370878937616" lon="11.333498253936567"><ele>241.0</ele><time>2026-04-23T13:08:17.999Z</time></trkpt><trkpt lat="46.42364368451779" lon="11.333424645688542"><ele>241.0</ele><time>2026-04-23T13:08:18.999Z</time></trkpt><trkpt lat="46.423578758318605" lon="11.333348358132858"><ele>241.00000000000003</ele><time>2026-04-23T13:08:19.999Z</time></trkpt><trkpt lat="46.42350611261176" lon="11.333268102340062"><ele>241.00000000000003</ele><time>2026-04-23T13:08:20.999Z</time></trkpt><trkpt lat="46.4234293337481" lon="11.333187676363313"><ele>241.0</ele><time>2026-04-23T13:08:21.999Z</time></trkpt><trkpt lat="46.4233483782914" lon="11.333105049727413"><ele>241.0</ele><time>2026-04-23T13:08:22.999Z</time></trkpt><trkpt lat="46.42326426106997" lon="11.333017229015509"><ele>241.0</ele><time>2026-04-23T13:08:23.999Z</time></trkpt><trkpt lat="46.42317687537278" lon="11.332922068986225"><ele>241.0</ele><time>2026-04-23T13:08:24.999Z</time></trkpt><trkpt lat="46.42308777130096" lon="11.332821901348797"><ele>241.0</ele><time>2026-04-23T13:08:25.999Z</time></trkpt><trkpt lat="46.42299713924535" lon="11.332718936146899"><ele>241.0</ele><time>2026-04-23T13:08:26.999Z</time></trkpt><trkpt lat="46.422904223600874" lon="11.332616360863724"><ele>241.0</ele><time>2026-04-23T13:08:27.999Z</time></trkpt><trkpt lat="46.42280907756759" lon="11.332517044847945"><ele>241.00000000000003</ele><time>2026-04-23T13:08:28.999Z</time></trkpt><trkpt lat="46.4227166224559" lon="11.332421414258018"><ele>241.00000000000003</ele><time>2026-04-23T13:08:29.999Z</time></trkpt><trkpt lat="46.422627491042746" lon="11.332338462441834"><ele>241.0</ele><time>2026-04-23T13:08:30.999Z</time></trkpt><trkpt lat="46.422540678788565" lon="11.332266204361838"><ele>241.0</ele><time>2026-04-23T13:08:31.999Z</time></trkpt><trkpt lat="46.42245095035339" lon="11.332203789342241"><ele>240.4</ele><time>2026-04-23T13:08:32.999Z</time></trkpt><trkpt lat="46.422357728385556" lon="11.3321436666376"><ele>239.8</ele><time>2026-04-23T13:08:33.999Z</time></trkpt><trkpt lat="46.422260634774325" lon="11.332085849766111"><ele>239.20000000000002</ele><time>2026-04-23T13:08:34.999Z</time></trkpt><trkpt lat="46.42216548383022" lon="11.332033745388733"><ele>238.60000000000002</ele><time>2026-04-23T13:08:35.999Z</time></trkpt><trkpt lat="46.422072185024014" lon="11.33199046838219"><ele>238.0</ele><time>2026-04-23T13:08:36.999Z</time></trkpt><trkpt lat="46.421986559889376" lon="11.331955158579177"><ele>238.0</ele><time>2026-04-23T13:08:37.999Z</time></trkpt><trkpt lat="46.421915561967865" lon="11.331933853023246"><ele>238.0</ele><time>2026-04-23T13:08:38.999Z</time></trkpt><trkpt lat="46.42182248000168" lon="11.331906944008786"><ele>238.0</ele><time>2026-04-23T13:08:40.999Z</time></trkpt><trkpt lat="46.42172899241253" lon="11.33189117501288"><ele>238.0</ele><time>2026-04-23T13:09:06.998Z</time></trkpt><trkpt lat="46.4216283841107" lon="11.331873897243984"><ele>238.0</ele><time>2026-04-23T13:09:08.998Z</time></trkpt><trkpt lat="46.42149755032673" lon="11.331855575171843"><ele>238.0</ele><time>2026-04-23T13:09:10.998Z</time></trkpt><trkpt lat="46.4214221061102" lon="11.331848641184038"><ele>238.0</ele><time>2026-04-23T13:09:11.998Z</time></trkpt><trkpt lat="46.42133451421987" lon="11.331846119900902"><ele>238.0</ele><time>2026-04-23T13:09:12.998Z</time></trkpt><trkpt lat="46.42123439003835" lon="11.331850036880825"><ele>238.0</ele><time>2026-04-23T13:09:13.998Z</time></trkpt><trkpt lat="46.42113096004835" lon="11.331868868333503"><ele>238.0</ele><time>2026-04-23T13:09:14.998Z</time></trkpt><trkpt lat="46.421024149128115" lon="11.331892210849716"><ele>237.75</ele><time>2026-04-23T13:09:15.998Z</time></trkpt><trkpt lat="46.420913820059184" lon="11.331918110558421"><ele>237.5</ele><time>2026-04-23T13:09:16.998Z</time></trkpt><trkpt lat="46.420804456454384" lon="11.33194734318082"><ele>237.25</ele><time>2026-04-23T13:09:17.998Z</time></trkpt><trkpt lat="46.420691797667956" lon="11.331977238575872"><ele>237.0</ele><time>2026-04-23T13:09:18.998Z</time></trkpt><trkpt lat="46.42057777506273" lon="11.332005365039574"><ele>237.0</ele><time>2026-04-23T13:09:19.998Z</time></trkpt><trkpt lat="46.420460932345435" lon="11.332032632850462"><ele>237.0</ele><time>2026-04-23T13:09:20.998Z</time></trkpt><trkpt lat="46.420345886521424" lon="11.332062852639575"><ele>237.0</ele><time>2026-04-23T13:09:21.998Z</time></trkpt><trkpt lat="46.42022668695245" lon="11.332099918465163"><ele>237.0</ele><time>2026-04-23T13:09:22.998Z</time></trkpt><trkpt lat="46.42010557850195" lon="11.332145577732403"><ele>237.0</ele><time>2026-04-23T13:09:23.998Z</time></trkpt><trkpt lat="46.41998110393655" lon="11.332202132197455"><ele>237.0</ele><time>2026-04-23T13:09:24.998Z</time></trkpt><trkpt lat="46.419851092225215" lon="11.332261832418732"><ele>237.0</ele><time>2026-04-23T13:09:25.998Z</time></trkpt><trkpt lat="46.419716028117534" lon="11.33232043297426"><ele>237.0</ele><time>2026-04-23T13:09:26.998Z</time></trkpt><trkpt lat="46.41957625942486" lon="11.332372099683038"><ele>236.75</ele><time>2026-04-23T13:09:27.998Z</time></trkpt><trkpt lat="46.41943484962664" lon="11.332415164850076"><ele>236.5</ele><time>2026-04-23T13:09:28.998Z</time></trkpt><trkpt lat="46.419292598725015" lon="11.332445931290895"><ele>236.25</ele><time>2026-04-23T13:09:29.998Z</time></trkpt><trkpt lat="46.41915363573396" lon="11.332468528083522"><ele>236.0</ele><time>2026-04-23T13:09:30.998Z</time></trkpt><trkpt lat="46.419022616467714" lon="11.332480763031457"><ele>236.0</ele><time>2026-04-23T13:09:31.998Z</time></trkpt><trkpt lat="46.41890174724572" lon="11.332478390616247"><ele>236.00000000000003</ele><time>2026-04-23T13:09:32.998Z</time></trkpt><trkpt lat="46.41878908138176" lon="11.332464253237758"><ele>236.00000000000003</ele><time>2026-04-23T13:09:33.998Z</time></trkpt><trkpt lat="46.4186850593888" lon="11.332441982374085"><ele>236.0</ele><time>2026-04-23T13:09:34.998Z</time></trkpt><trkpt lat="46.418589378630784" lon="11.332422640711385"><ele>236.0</ele><time>2026-04-23T13:09:35.998Z</time></trkpt><trkpt lat="46.41850428074767" lon="11.33240812434986"><ele>236.16666666666669</ele><time>2026-04-23T13:09:36.998Z</time></trkpt><trkpt lat="46.418428336053324" lon="11.332396680207513"><ele>236.33333333333334</ele><time>2026-04-23T13:09:37.998Z</time></trkpt><trkpt lat="46.418358920584055" lon="11.332388787299095"><ele>236.5</ele><time>2026-04-23T13:09:38.998Z</time></trkpt><trkpt lat="46.418249152783964" lon="11.332373208412955"><ele>236.66666666666669</ele><time>2026-04-23T13:09:40.997Z</time></trkpt><trkpt lat="46.4181458753888" lon="11.332351294508975"><ele>236.83333333333334</ele><time>2026-04-23T13:09:42.997Z</time></trkpt><trkpt lat="46.41807543076647" lon="11.332335262785115"><ele>237.0</ele><time>2026-04-23T13:09:43.997Z</time></trkpt><trkpt lat="46.417988628237644" lon="11.332316015996685"><ele>236.8</ele><time>2026-04-23T13:09:44.997Z</time></trkpt><trkpt lat="46.41789033801922" lon="11.332291001275841"><ele>236.6</ele><time>2026-04-23T13:09:45.997Z</time></trkpt><trkpt lat="46.41778307925334" lon="11.332255506267906"><ele>236.40000000000003</ele><time>2026-04-23T13:09:46.997Z</time></trkpt><trkpt lat="46.41767384600721" lon="11.332225370752955"><ele>236.20000000000002</ele><time>2026-04-23T13:09:47.997Z</time></trkpt><trkpt lat="46.4175605319647" lon="11.332199718099115"><ele>236.0</ele><time>2026-04-23T13:09:48.997Z</time></trkpt><trkpt lat="46.41744388249133" lon="11.332175673475676"><ele>235.33333333333334</ele><time>2026-04-23T13:09:49.997Z</time></trkpt><trkpt lat="46.41732460178919" lon="11.332149500370736"><ele>234.66666666666669</ele><time>2026-04-23T13:09:50.997Z</time></trkpt><trkpt lat="46.41720439878853" lon="11.332119476742553"><ele>234.0</ele><time>2026-04-23T13:09:51.997Z</time></trkpt><trkpt lat="46.41557462516082" lon="11.332497490949843"><ele>234.79999999999998</ele><time>2026-04-23T13:10:19.999Z</time></trkpt><trkpt lat="46.415616923686876" lon="11.332586196997232"><ele>235.59999999999997</ele><time>2026-04-23T13:10:20.999Z</time></trkpt><trkpt lat="46.41565345058706" lon="11.332678223548351"><ele>236.4</ele><time>2026-04-23T13:10:21.999Z</time></trkpt><trkpt lat="46.41570568175413" lon="11.332782781283488"><ele>237.2</ele><time>2026-04-23T13:10:23.999Z</time></trkpt><trkpt lat="46.4158255538696" lon="11.332670352205886"><ele>238.0</ele><time>2026-04-23T13:10:25.999Z</time></trkpt><trkpt lat="46.41589428358113" lon="11.332602604377152"><ele>238.0</ele><time>2026-04-23T13:10:28.999Z</time></trkpt><trkpt lat="46.41594641744706" lon="11.33255121528004"><ele>238.0</ele><time>2026-04-23T13:10:31.999Z</time></trkpt></trkseg><trkseg><trkpt lat="46.4159734375111" lon="11.332339403435602"><ele>236.25</ele><time>2026-04-23T13:57:56.998Z</time></trkpt><trkpt lat="46.41590517413709" lon="11.332169597283741"><ele>234.5</ele><time>2026-04-23T13:57:58.998Z</time></trkpt><trkpt lat="46.41587941886261" lon="11.332044775390958"><ele>232.75</ele><time>2026-04-23T13:58:00.998Z</time></trkpt><trkpt lat="46.41581074622084" lon="11.331940452828059"><ele>231.0</ele><time>2026-04-23T13:58:03.998Z</time></trkpt><trkpt lat="46.415675725755754" lon="11.331932911427984"><ele>231.0</ele><time>2026-04-23T13:58:05.998Z</time></trkpt><trkpt lat="46.41554901799562" lon="11.331926627585586"><ele>231.0</ele><time>2026-04-23T13:58:06.998Z</time></trkpt><trkpt lat="46.41547072967743" lon="11.331890008064237"><ele>231.0</ele><time>2026-04-23T13:58:07.998Z</time></trkpt><trkpt lat="46.41540396530166" lon="11.331866075414379"><ele>231.0</ele><time>2026-04-23T13:58:08.998Z</time></trkpt><trkpt lat="46.41541689129" lon="11.331762445548536"><ele>231.0</ele><time>2026-04-23T13:58:17.998Z</time></trkpt><trkpt lat="46.41550219873977" lon="11.331735674028348"><ele>231.0</ele><time>2026-04-23T13:58:19.998Z</time></trkpt><trkpt lat="46.41559570333821" lon="11.331772717798756"><ele>231.0</ele><time>2026-04-23T13:58:20.998Z</time></trkpt><trkpt lat="46.415689551965656" lon="11.331801978703222"><ele>231.00000000000003</ele><time>2026-04-23T13:58:21.998Z</time></trkpt><trkpt lat="46.41577870273397" lon="11.33182028504091"><ele>231.00000000000003</ele><time>2026-04-23T13:58:22.998Z</time></trkpt><trkpt lat="46.41588283996397" lon="11.331845661093649"><ele>231.0</ele><time>2026-04-23T13:58:23.998Z</time></trkpt><trkpt lat="46.416008569090486" lon="11.331860412726295"><ele>231.0</ele><time>2026-04-23T13:58:24.998Z</time></trkpt><trkpt lat="46.41612973803506" lon="11.3319019669161"><ele>231.0</ele><time>2026-04-23T13:58:25.998Z</time></trkpt><trkpt lat="46.41625087914301" lon="11.3319424679915"><ele>231.0</ele><time>2026-04-23T13:58:26.998Z</time></trkpt><trkpt lat="46.416374150331706" lon="11.331968047495812"><ele>231.0</ele><time>2026-04-23T13:58:27.998Z</time></trkpt><trkpt lat="46.41649326290219" lon="11.331994175079119"><ele>231.0</ele><time>2026-04-23T13:58:28.998Z</time></trkpt><trkpt lat="46.4166151227594" lon="11.332021070238268"><ele>231.5</ele><time>2026-04-23T13:58:29.998Z</time></trkpt><trkpt lat="46.416740570599266" lon="11.332047718806734"><ele>232.0</ele><time>2026-04-23T13:58:30.998Z</time></trkpt><trkpt lat="46.41686500778327" lon="11.332079761581607"><ele>232.5</ele><time>2026-04-23T13:58:31.998Z</time></trkpt><trkpt lat="46.41699108918654" lon="11.332104722060807"><ele>233.0</ele><time>2026-04-23T13:58:32.998Z</time></trkpt><trkpt lat="46.417121469048766" lon="11.332135522509784"><ele>233.25</ele><time>2026-04-23T13:58:33.998Z</time></trkpt><trkpt lat="46.417250298417244" lon="11.332167000986788"><ele>233.5</ele><time>2026-04-23T13:58:34.998Z</time></trkpt><trkpt lat="46.41738270065232" lon="11.332196254698573"><ele>233.75</ele><time>2026-04-23T13:58:35.998Z</time></trkpt><trkpt lat="46.417516928002605" lon="11.332231487454699"><ele>234.0</ele><time>2026-04-23T13:58:36.998Z</time></trkpt><trkpt lat="46.41765494796362" lon="11.332267454857702"><ele>234.5</ele><time>2026-04-23T13:58:37.998Z</time></trkpt><trkpt lat="46.41779146533447" lon="11.332302264196121"><ele>235.0</ele><time>2026-04-23T13:58:38.998Z</time></trkpt><trkpt lat="46.41792545057697" lon="11.33233292884865"><ele>235.5</ele><time>2026-04-23T13:58:39.998Z</time></trkpt><trkpt lat="46.41805750323896" lon="11.332362097586417"><ele>236.0</ele><time>2026-04-23T13:58:40.998Z</time></trkpt><trkpt lat="46.4181883673615" lon="11.332395505466534"><ele>236.25</ele><time>2026-04-23T13:58:41.998Z</time></trkpt><trkpt lat="46.41831819047456" lon="11.332428942268415"><ele>236.5</ele><time>2026-04-23T13:58:42.998Z</time></trkpt><trkpt lat="46.418445933913006" lon="11.332458044218901"><ele>236.75</ele><time>2026-04-23T13:58:43.998Z</time></trkpt><trkpt lat="46.41857215081194" lon="11.33248585863539"><ele>237.0</ele><time>2026-04-23T13:58:44.998Z</time></trkpt><trkpt lat="46.41869969299808" lon="11.332512414512204"><ele>236.75</ele><time>2026-04-23T13:58:45.998Z</time></trkpt><trkpt lat="46.418824612627766" lon="11.33254035976433"><ele>236.5</ele><time>2026-04-23T13:58:46.998Z</time></trkpt><trkpt lat="46.41895205813881" lon="11.332558930299918"><ele>236.25</ele><time>2026-04-23T13:58:47.998Z</time></trkpt><trkpt lat="46.41907859128618" lon="11.332548987014594"><ele>236.0</ele><time>2026-04-23T13:58:48.998Z</time></trkpt><trkpt lat="46.41920564189526" lon="11.332527561503964"><ele>236.0</ele><time>2026-04-23T13:58:49.998Z</time></trkpt><trkpt lat="46.419336167283575" lon="11.332485082001844"><ele>236.0</ele><time>2026-04-23T13:58:50.998Z</time></trkpt><trkpt lat="46.41947312635044" lon="11.332442059243562"><ele>236.0</ele><time>2026-04-23T13:58:51.998Z</time></trkpt><trkpt lat="46.41960685594047" lon="11.33239165314944"><ele>236.0</ele><time>2026-04-23T13:58:52.998Z</time></trkpt><trkpt lat="46.41974334915977" lon="11.332333003344251"><ele>236.25</ele><time>2026-04-23T13:58:53.998Z</time></trkpt><trkpt lat="46.41987967688145" lon="11.332265026339918"><ele>236.5</ele><time>2026-04-23T13:58:54.998Z</time></trkpt><trkpt lat="46.420020794508005" lon="11.332210506788503"><ele>236.75</ele><time>2026-04-23T13:58:55.998Z</time></trkpt><trkpt lat="46.420160705121084" lon="11.33214165942201"><ele>237.0</ele><time>2026-04-23T13:58:56.998Z</time></trkpt><trkpt lat="46.42030300564814" lon="11.332093224295857"><ele>237.0</ele><time>2026-04-23T13:58:57.998Z</time></trkpt><trkpt lat="46.42044689566598" lon="11.332062231092038"><ele>237.0</ele><time>2026-04-23T13:58:58.998Z</time></trkpt><trkpt lat="46.42059087573702" lon="11.33203334349254"><ele>237.0</ele><time>2026-04-23T13:58:59.998Z</time></trkpt><trkpt lat="46.42073690876526" lon="11.331998165686555"><ele>237.0</ele><time>2026-04-23T13:59:00.998Z</time></trkpt><trkpt lat="46.42088171227016" lon="11.331961465684266"><ele>237.0</ele><time>2026-04-23T13:59:01.998Z</time></trkpt><trkpt lat="46.42102950980831" lon="11.331925166794045"><ele>237.0</ele><time>2026-04-23T13:59:02.998Z</time></trkpt><trkpt lat="46.42117364276983" lon="11.331895018451245"><ele>237.0</ele><time>2026-04-23T13:59:03.998Z</time></trkpt><trkpt lat="46.42132368884292" lon="11.331883087168993"><ele>237.0</ele><time>2026-04-23T13:59:04.998Z</time></trkpt><trkpt lat="46.42146893693506" lon="11.331885737914543"><ele>237.25</ele><time>2026-04-23T13:59:05.998Z</time></trkpt><trkpt lat="46.42161298271026" lon="11.33189562646494"><ele>237.5</ele><time>2026-04-23T13:59:06.998Z</time></trkpt><trkpt lat="46.42175710285521" lon="11.331917901410344"><ele>237.75</ele><time>2026-04-23T13:59:07.998Z</time></trkpt><trkpt lat="46.421900441521295" lon="11.331962938034007"><ele>238.0</ele><time>2026-04-23T13:59:08.998Z</time></trkpt><trkpt lat="46.42204030282869" lon="11.332013382445972"><ele>237.75</ele><time>2026-04-23T13:59:09.998Z</time></trkpt><trkpt lat="46.42217872616085" lon="11.332084609811693"><ele>237.5</ele><time>2026-04-23T13:59:10.998Z</time></trkpt><trkpt lat="46.422309641737435" lon="11.332161975488082"><ele>237.25</ele><time>2026-04-23T13:59:11.998Z</time></trkpt><trkpt lat="46.42243592420111" lon="11.332246398165157"><ele>237.0</ele><time>2026-04-23T13:59:12.998Z</time></trkpt><trkpt lat="46.422565899096014" lon="11.332337375643716"><ele>238.0</ele><time>2026-04-23T13:59:13.998Z</time></trkpt><trkpt lat="46.422684853636596" lon="11.33244054547037"><ele>239.0</ele><time>2026-04-23T13:59:14.998Z</time></trkpt><trkpt lat="46.42278378591321" lon="11.332544508436719"><ele>240.0</ele><time>2026-04-23T13:59:15.998Z</time></trkpt><trkpt lat="46.42287490225697" lon="11.332643562643392"><ele>241.0</ele><time>2026-04-23T13:59:16.998Z</time></trkpt><trkpt lat="46.42296372596356" lon="11.332740207502619"><ele>241.0</ele><time>2026-04-23T13:59:17.998Z</time></trkpt><trkpt lat="46.423050929778086" lon="11.332838437805417"><ele>241.00000000000003</ele><time>2026-04-23T13:59:18.998Z</time></trkpt><trkpt lat="46.42313946656968" lon="11.332930736773072"><ele>241.00000000000003</ele><time>2026-04-23T13:59:19.998Z</time></trkpt><trkpt lat="46.42322588813945" lon="11.333023948660662"><ele>241.0</ele><time>2026-04-23T13:59:20.998Z</time></trkpt><trkpt lat="46.42331273566141" lon="11.333116507463735"><ele>241.0</ele><time>2026-04-23T13:59:21.998Z</time></trkpt><trkpt lat="46.423397973715566" lon="11.333209872705089"><ele>241.0</ele><time>2026-04-23T13:59:22.998Z</time></trkpt><trkpt lat="46.42348210083985" lon="11.333297526132366"><ele>241.00000000000003</ele><time>2026-04-23T13:59:23.998Z</time></trkpt><trkpt lat="46.423558544398354" lon="11.333382492166272"><ele>241.00000000000003</ele><time>2026-04-23T13:59:24.998Z</time></trkpt><trkpt lat="46.42363745171019" lon="11.333467399013898"><ele>241.0</ele><time>2026-04-23T13:59:25.998Z</time></trkpt><trkpt lat="46.4237191445274" lon="11.333559033743256"><ele>241.0</ele><time>2026-04-23T13:59:26.998Z</time></trkpt><trkpt lat="46.42380356917409" lon="11.333646868634727"><ele>241.20000000000002</ele><time>2026-04-23T13:59:27.998Z</time></trkpt><trkpt lat="46.423881166593084" lon="11.33373387949677"><ele>241.40000000000003</ele><time>2026-04-23T13:59:28.998Z</time></trkpt><trkpt lat="46.42395159656458" lon="11.333816420573024"><ele>241.6</ele><time>2026-04-23T13:59:29.998Z</time></trkpt><trkpt lat="46.4240268125744" lon="11.333892944278876"><ele>241.8</ele><time>2026-04-23T13:59:30.997Z</time></trkpt><trkpt lat="46.42409187501752" lon="11.333984472340319"><ele>242.0</ele><time>2026-04-23T13:59:31.997Z</time></trkpt><trkpt lat="46.42416499991515" lon="11.334064668313685"><ele>242.0</ele><time>2026-04-23T13:59:32.997Z</time></trkpt><trkpt lat="46.42423827255056" lon="11.334145270812972"><ele>242.0</ele><time>2026-04-23T13:59:33.997Z</time></trkpt><trkpt lat="46.42432429463322" lon="11.334245711675429"><ele>242.0</ele><time>2026-04-23T13:59:34.997Z</time></trkpt><trkpt lat="46.4244232813647" lon="11.334372233110622"><ele>242.0</ele><time>2026-04-23T13:59:35.997Z</time></trkpt><trkpt lat="46.42453895051158" lon="11.334480383726715"><ele>242.0</ele><time>2026-04-23T13:59:36.997Z</time></trkpt><trkpt lat="46.424639169193" lon="11.334581310843435"><ele>242.0</ele><time>2026-04-23T13:59:37.997Z</time></trkpt><trkpt lat="46.42472205526218" lon="11.334674336661914"><ele>242.0</ele><time>2026-04-23T13:59:38.997Z</time></trkpt><trkpt lat="46.42479180910941" lon="11.33475300194372"><ele>242.0</ele><time>2026-04-23T13:59:39.997Z</time></trkpt><trkpt lat="46.424857496979904" lon="11.334825562253762"><ele>242.0</ele><time>2026-04-23T13:59:40.997Z</time></trkpt><trkpt lat="46.424922705713534" lon="11.33489240007209"><ele>242.2</ele><time>2026-04-23T13:59:41.997Z</time></trkpt><trkpt lat="46.42499183242646" lon="11.334956518290625"><ele>242.39999999999998</ele><time>2026-04-23T13:59:42.997Z</time></trkpt><trkpt lat="46.42506876483122" lon="11.335032282255883"><ele>242.60000000000002</ele><time>2026-04-23T13:59:43.997Z</time></trkpt><trkpt lat="46.42514988711509" lon="11.33513229038923"><ele>242.8</ele><time>2026-04-23T13:59:44.997Z</time></trkpt><trkpt lat="46.42523479722321" lon="11.335244708781444"><ele>243.0</ele><time>2026-04-23T13:59:45.997Z</time></trkpt><trkpt lat="46.4253208582759" lon="11.335342268331921"><ele>243.0</ele><time>2026-04-23T13:59:46.997Z</time></trkpt><trkpt lat="46.425400900639794" lon="11.335430911741918"><ele>243.0</ele><time>2026-04-23T13:59:47.997Z</time></trkpt><trkpt lat="46.425467032207976" lon="11.33550393129944"><ele>243.0</ele><time>2026-04-23T13:59:48.997Z</time></trkpt><trkpt lat="46.42552741421062" lon="11.335575078061028"><ele>243.0</ele><time>2026-04-23T13:59:49.997Z</time></trkpt><trkpt lat="46.42558330936516" lon="11.33563744963578"><ele>243.0</ele><time>2026-04-23T13:59:50.997Z</time></trkpt><trkpt lat="46.42563821753491" lon="11.335697401886152"><ele>243.0</ele><time>2026-04-23T13:59:51.997Z</time></trkpt><trkpt lat="46.4256885920127" lon="11.335752291886212"><ele>244.0</ele><time>2026-04-23T13:59:52.999Z</time></trkpt><trkpt lat="46.42578234387716" lon="11.33585416971723"><ele>245.0</ele><time>2026-04-23T13:59:54.999Z</time></trkpt><trkpt lat="46.42588502478901" lon="11.335962280298693"><ele>246.0</ele><time>2026-04-23T13:59:56.999Z</time></trkpt><trkpt lat="46.425939154577556" lon="11.336024360233118"><ele>247.0</ele><time>2026-04-23T13:59:57.999Z</time></trkpt><trkpt lat="46.425994591968184" lon="11.33608458660398"><ele>248.0</ele><time>2026-04-23T13:59:58.999Z</time></trkpt><trkpt lat="46.42604965338873" lon="11.336143289854194"><ele>248.0</ele><time>2026-04-23T13:59:59.999Z</time></trkpt><trkpt lat="46.42610224595403" lon="11.33619959209178"><ele>248.0</ele><time>2026-04-23T14:00:00.999Z</time></trkpt><trkpt lat="46.426196575050135" lon="11.336303389365309"><ele>248.0</ele><time>2026-04-23T14:00:02.999Z</time></trkpt><trkpt lat="46.42627462989645" lon="11.336388046394104"><ele>248.0</ele><time>2026-04-23T14:00:04.999Z</time></trkpt><trkpt lat="46.426365726667456" lon="11.336476548087864"><ele>248.0</ele><time>2026-04-23T14:00:06.999Z</time></trkpt><trkpt lat="46.42644196432572" lon="11.336548969961129"><ele>247.75</ele><time>2026-04-23T14:00:07.999Z</time></trkpt><trkpt lat="46.42652391667649" lon="11.336665322176971"><ele>247.5</ele><time>2026-04-23T14:00:08.999Z</time></trkpt><trkpt lat="46.42661654859405" lon="11.336767171163242"><ele>247.25</ele><time>2026-04-23T14:00:09.999Z</time></trkpt><trkpt lat="46.42670533673909" lon="11.33686479394299"><ele>247.0</ele><time>2026-04-23T14:00:10.999Z</time></trkpt><trkpt lat="46.42680080698361" lon="11.336969762792675"><ele>247.0</ele><time>2026-04-23T14:00:11.999Z</time></trkpt><trkpt lat="46.42689191093664" lon="11.33704671695647"><ele>247.0</ele><time>2026-04-23T14:00:12.999Z</time></trkpt><trkpt lat="46.42697052222316" lon="11.337150911706352"><ele>247.0</ele><time>2026-04-23T14:00:13.999Z</time></trkpt><trkpt lat="46.427061031447906" lon="11.33725402256417"><ele>247.0</ele><time>2026-04-23T14:00:14.999Z</time></trkpt><trkpt lat="46.42716407897273" lon="11.337361889943688"><ele>247.0</ele><time>2026-04-23T14:00:15.999Z</time></trkpt><trkpt lat="46.427273439855384" lon="11.33748035044522"><ele>247.0</ele><time>2026-04-23T14:00:16.999Z</time></trkpt><trkpt lat="46.42738721140789" lon="11.337607621153822"><ele>247.0</ele><time>2026-04-23T14:00:17.999Z</time></trkpt><trkpt lat="46.42749890642823" lon="11.337745129181604"><ele>247.0</ele><time>2026-04-23T14:00:18.999Z</time></trkpt><trkpt lat="46.42759815375263" lon="11.337885234839414"><ele>247.0</ele><time>2026-04-23T14:00:19.999Z</time></trkpt><trkpt lat="46.4276893324164" lon="11.33802332071295"><ele>247.0</ele><time>2026-04-23T14:00:20.999Z</time></trkpt><trkpt lat="46.42776854615484" lon="11.338165033832967"><ele>247.0</ele><time>2026-04-23T14:00:21.999Z</time></trkpt><trkpt lat="46.42783738055541" lon="11.338306076266758"><ele>247.0</ele><time>2026-04-23T14:00:22.999Z</time></trkpt><trkpt lat="46.42789440543656" lon="11.338452827635297"><ele>246.6</ele><time>2026-04-23T14:00:23.999Z</time></trkpt><trkpt lat="46.427947494841064" lon="11.338601204067709"><ele>246.2</ele><time>2026-04-23T14:00:24.999Z</time></trkpt><trkpt lat="46.42799606447828" lon="11.338756505170615"><ele>245.8</ele><time>2026-04-23T14:00:25.999Z</time></trkpt><trkpt lat="46.428037806141084" lon="11.33890248386483"><ele>245.4</ele><time>2026-04-23T14:00:26.999Z</time></trkpt><trkpt lat="46.428065600668596" lon="11.339028272991827"><ele>245.0</ele><time>2026-04-23T14:00:27.999Z</time></trkpt><trkpt lat="46.42809360781812" lon="11.339181694224663"><ele>244.8</ele><time>2026-04-23T14:00:29.999Z</time></trkpt><trkpt lat="46.42810889779668" lon="11.339338629989747"><ele>244.6</ele><time>2026-04-23T14:01:00.999Z</time></trkpt><trkpt lat="46.428123004876475" lon="11.339440080148895"><ele>244.39999999999998</ele><time>2026-04-23T14:01:01.999Z</time></trkpt><trkpt lat="46.428133650156276" lon="11.339550480518032"><ele>244.2</ele><time>2026-04-23T14:01:02.999Z</time></trkpt><trkpt lat="46.428146476069685" lon="11.339689879295024"><ele>244.0</ele><time>2026-04-23T14:01:03.999Z</time></trkpt><trkpt lat="46.42815767913177" lon="11.3398469362374"><ele>244.5</ele><time>2026-04-23T14:01:04.999Z</time></trkpt><trkpt lat="46.428174926884914" lon="11.340021799558016"><ele>245.0</ele><time>2026-04-23T14:01:05.999Z</time></trkpt><trkpt lat="46.42819496106322" lon="11.34019048887579"><ele>245.5</ele><time>2026-04-23T14:01:06.999Z</time></trkpt><trkpt lat="46.428220692456996" lon="11.340368009117217"><ele>246.0</ele><time>2026-04-23T14:01:07.999Z</time></trkpt><trkpt lat="46.428251350948614" lon="11.340548753519123"><ele>246.25</ele><time>2026-04-23T14:01:08.999Z</time></trkpt><trkpt lat="46.42828662039421" lon="11.340731944652859"><ele>246.5</ele><time>2026-04-23T14:01:09.999Z</time></trkpt><trkpt lat="46.42832697012707" lon="11.340917839624282"><ele>246.75</ele><time>2026-04-23T14:01:10.999Z</time></trkpt><trkpt lat="46.42837039435359" lon="11.341106902500496"><ele>247.0</ele><time>2026-04-23T14:01:11.999Z</time></trkpt><trkpt lat="46.428422178282815" lon="11.341291581292005"><ele>247.25</ele><time>2026-04-23T14:01:12.999Z</time></trkpt><trkpt lat="46.428480404550704" lon="11.341470819790866"><ele>247.5</ele><time>2026-04-23T14:01:13.999Z</time></trkpt><trkpt lat="46.4285457931645" lon="11.34164627286606"><ele>247.75</ele><time>2026-04-23T14:01:14.999Z</time></trkpt><trkpt lat="46.42861344693699" lon="11.341821725825987"><ele>248.0</ele><time>2026-04-23T14:01:15.999Z</time></trkpt><trkpt lat="46.42868223460797" lon="11.341998421633026"><ele>248.0</ele><time>2026-04-23T14:01:16.999Z</time></trkpt><trkpt lat="46.428750820084844" lon="11.342174807327936"><ele>248.0</ele><time>2026-04-23T14:01:17.999Z</time></trkpt><trkpt lat="46.42881965970026" lon="11.342349306681756"><ele>248.0</ele><time>2026-04-23T14:01:18.998Z</time></trkpt><trkpt lat="46.42888848643122" lon="11.34252488002734"><ele>248.0</ele><time>2026-04-23T14:01:19.998Z</time></trkpt><trkpt lat="46.428956322569746" lon="11.342697655670658"><ele>247.00000000000003</ele><time>2026-04-23T14:01:20.998Z</time></trkpt><trkpt lat="46.42902405327498" lon="11.342864809902741"><ele>246.0</ele><time>2026-04-23T14:01:21.998Z</time></trkpt><trkpt lat="46.429076012921" lon="11.342992779960246"><ele>245.0</ele><time>2026-04-23T14:01:22.998Z</time></trkpt><trkpt lat="46.42911152775102" lon="11.34307734913405"><ele>244.0</ele><time>2026-04-23T14:01:23.998Z</time></trkpt><trkpt lat="46.42915025748749" lon="11.343162093018117"><ele>243.00000000000003</ele><time>2026-04-23T14:01:25.998Z</time></trkpt><trkpt lat="46.429190929655306" lon="11.343251391243035"><ele>242.0</ele><time>2026-04-23T14:01:27.998Z</time></trkpt><trkpt lat="46.429220780684545" lon="11.34333648042362"><ele>242.0</ele><time>2026-04-23T14:01:28.998Z</time></trkpt><trkpt lat="46.42925740836476" lon="11.343439345712792"><ele>242.0</ele><time>2026-04-23T14:01:29.998Z</time></trkpt><trkpt lat="46.42930157066538" lon="11.34355335628776"><ele>242.0</ele><time>2026-04-23T14:01:30.998Z</time></trkpt><trkpt lat="46.42934775609856" lon="11.343670528258551"><ele>242.0</ele><time>2026-04-23T14:01:31.998Z</time></trkpt><trkpt lat="46.4294008020796" lon="11.343804995842243"><ele>242.0</ele><time>2026-04-23T14:01:32.998Z</time></trkpt><trkpt lat="46.4294604037981" lon="11.343953535451138"><ele>242.5</ele><time>2026-04-23T14:01:33.998Z</time></trkpt><trkpt lat="46.42952634334007" lon="11.344112409508828"><ele>243.0</ele><time>2026-04-23T14:01:34.998Z</time></trkpt><trkpt lat="46.42959629162367" lon="11.344261050405578"><ele>243.5</ele><time>2026-04-23T14:01:35.998Z</time></trkpt><trkpt lat="46.4296759791618" lon="11.34441168302548"><ele>244.0</ele><time>2026-04-23T14:01:36.998Z</time></trkpt><trkpt lat="46.42976376368464" lon="11.344563133184842"><ele>242.5</ele><time>2026-04-23T14:01:37.998Z</time></trkpt><trkpt lat="46.42985784533028" lon="11.344713473980727"><ele>241.0</ele><time>2026-04-23T14:01:38.998Z</time></trkpt><trkpt lat="46.429953237915015" lon="11.344866155513323"><ele>239.5</ele><time>2026-04-23T14:01:39.998Z</time></trkpt><trkpt lat="46.430051918855916" lon="11.345021306713608"><ele>238.0</ele><time>2026-04-23T14:01:40.998Z</time></trkpt><trkpt lat="46.43015306017551" lon="11.345168284367421"><ele>238.0</ele><time>2026-04-23T14:01:41.998Z</time></trkpt><trkpt lat="46.43026601684326" lon="11.345293450771237"><ele>238.0</ele><time>2026-04-23T14:01:42.998Z</time></trkpt><trkpt lat="46.43040050583181" lon="11.345396410557703"><ele>238.0</ele><time>2026-04-23T14:01:43.998Z</time></trkpt><trkpt lat="46.43055425390397" lon="11.345474992622306"><ele>237.33333333333331</ele><time>2026-04-23T14:01:44.998Z</time></trkpt><trkpt lat="46.430710308330845" lon="11.345544618900256"><ele>236.66666666666669</ele><time>2026-04-23T14:01:45.998Z</time></trkpt><trkpt lat="46.43087931681024" lon="11.345616318634"><ele>236.0</ele><time>2026-04-23T14:01:46.998Z</time></trkpt><trkpt lat="46.4310484654668" lon="11.345691575946327"><ele>236.33333333333334</ele><time>2026-04-23T14:01:47.998Z</time></trkpt><trkpt lat="46.43121599579814" lon="11.345767245093356"><ele>236.66666666666669</ele><time>2026-04-23T14:01:48.998Z</time></trkpt><trkpt lat="46.43139022650099" lon="11.345842778238648"><ele>237.0</ele><time>2026-04-23T14:01:49.998Z</time></trkpt><trkpt lat="46.43156571111591" lon="11.345913102353233"><ele>237.0</ele><time>2026-04-23T14:01:50.998Z</time></trkpt><trkpt lat="46.43173943722961" lon="11.345981358702604"><ele>237.0</ele><time>2026-04-23T14:01:51.998Z</time></trkpt><trkpt lat="46.43190581691638" lon="11.346051932601576"><ele>237.0</ele><time>2026-04-23T14:01:52.998Z</time></trkpt><trkpt lat="46.432060808506904" lon="11.346124045546103"><ele>234.0</ele><time>2026-04-23T14:01:53.998Z</time></trkpt><trkpt lat="46.432204732441804" lon="11.346193621542914"><ele>231.0</ele><time>2026-04-23T14:01:54.998Z</time></trkpt><trkpt lat="46.43234284529194" lon="11.346257724670146"><ele>228.0</ele><time>2026-04-23T14:01:55.998Z</time></trkpt><trkpt lat="46.43247167723778" lon="11.346322550567505"><ele>225.0</ele><time>2026-04-23T14:01:56.998Z</time></trkpt><trkpt lat="46.43259068911084" lon="11.346401392076706"><ele>231.0</ele><time>2026-04-23T14:01:58Z</time></trkpt><trkpt lat="46.43271391403331" lon="11.346508748703888"><ele>237.0</ele><time>2026-04-23T14:01:59Z</time></trkpt><trkpt lat="46.43284650740426" lon="11.346625091702048"><ele>243.0</ele><time>2026-04-23T14:02:00Z</time></trkpt><trkpt lat="46.432997043179796" lon="11.346726793997025"><ele>243.0</ele><time>2026-04-23T14:02:01Z</time></trkpt><trkpt lat="46.433160538987515" lon="11.346799177423405"><ele>243.0</ele><time>2026-04-23T14:02:02Z</time></trkpt><trkpt lat="46.4333326324748" lon="11.346850988501682"><ele>243.0</ele><time>2026-04-23T14:02:03Z</time></trkpt><trkpt lat="46.433507841745296" lon="11.34688624447331"><ele>243.0</ele><time>2026-04-23T14:02:04Z</time></trkpt><trkpt lat="46.433683141593335" lon="11.346906299509538"><ele>243.0</ele><time>2026-04-23T14:02:05Z</time></trkpt><trkpt lat="46.43385772206381" lon="11.34691989997757"><ele>243.0</ele><time>2026-04-23T14:02:06Z</time></trkpt><trkpt lat="46.43402565091276" lon="11.346937153628694"><ele>237.33333333333331</ele><time>2026-04-23T14:02:07Z</time></trkpt><trkpt lat="46.434182470618815" lon="11.34695944151991"><ele>231.66666666666666</ele><time>2026-04-23T14:02:08Z</time></trkpt><trkpt lat="46.43433235570688" lon="11.346976615610686"><ele>226.0</ele><time>2026-04-23T14:02:09Z</time></trkpt><trkpt lat="46.4344754946559" lon="11.34698191981291"><ele>226.0</ele><time>2026-04-23T14:02:10Z</time></trkpt><trkpt lat="46.434611138911876" lon="11.346964367212353"><ele>226.0</ele><time>2026-04-23T14:02:11Z</time></trkpt><trkpt lat="46.43474179307925" lon="11.346922678141784"><ele>226.0</ele><time>2026-04-23T14:02:12Z</time></trkpt><trkpt lat="46.43486083293968" lon="11.346849326156919"><ele>226.0</ele><time>2026-04-23T14:02:13Z</time></trkpt><trkpt lat="46.43496722543037" lon="11.346751155905114"><ele>226.0</ele><time>2026-04-23T14:02:14Z</time></trkpt><trkpt lat="46.43505768982533" lon="11.346625364779472"><ele>226.0</ele><time>2026-04-23T14:02:15Z</time></trkpt><trkpt lat="46.43513434557619" lon="11.346488246213246"><ele>226.0</ele><time>2026-04-23T14:02:16Z</time></trkpt><trkpt lat="46.435205366981215" lon="11.346357787050104"><ele>226.0</ele><time>2026-04-23T14:02:17Z</time></trkpt><trkpt lat="46.435276386144366" lon="11.346235773269001"><ele>226.0</ele><time>2026-04-23T14:02:18Z</time></trkpt><trkpt lat="46.43534925621411" lon="11.346122635886616"><ele>226.00000000000003</ele><time>2026-04-23T14:02:19Z</time></trkpt><trkpt lat="46.43542630585519" lon="11.34601200530297"><ele>226.00000000000003</ele><time>2026-04-23T14:02:20Z</time></trkpt><trkpt lat="46.43552215329823" lon="11.345911958011568"><ele>226.0</ele><time>2026-04-23T14:02:21Z</time></trkpt><trkpt lat="46.43559590676174" lon="11.345788726665594"><ele>226.0</ele><time>2026-04-23T14:02:22Z</time></trkpt><trkpt lat="46.4357200506197" lon="11.34572993084524"><ele>226.75</ele><time>2026-04-23T14:02:23Z</time></trkpt><trkpt lat="46.435819015021565" lon="11.345633916639288"><ele>227.5</ele><time>2026-04-23T14:02:24Z</time></trkpt><trkpt lat="46.43591759151297" lon="11.345537143319248"><ele>228.25</ele><time>2026-04-23T14:02:25Z</time></trkpt><trkpt lat="46.436015380296666" lon="11.345450689002982"><ele>229.0</ele><time>2026-04-23T14:02:26Z</time></trkpt><trkpt lat="46.436115288882924" lon="11.345368751924228"><ele>229.0</ele><time>2026-04-23T14:02:27Z</time></trkpt><trkpt lat="46.436212013178626" lon="11.345295105258113"><ele>228.99999999999997</ele><time>2026-04-23T14:02:28Z</time></trkpt><trkpt lat="46.436303858611865" lon="11.345229672644258"><ele>228.99999999999997</ele><time>2026-04-23T14:02:29Z</time></trkpt><trkpt lat="46.43639077532463" lon="11.3451697262289"><ele>229.0</ele><time>2026-04-23T14:02:30Z</time></trkpt><trkpt lat="46.43648136218253" lon="11.345110338255093"><ele>229.0</ele><time>2026-04-23T14:02:31Z</time></trkpt><trkpt lat="46.43657812814375" lon="11.345049953146203"><ele>228.5</ele><time>2026-04-23T14:02:32Z</time></trkpt><trkpt lat="46.4366787635648" lon="11.344990034124713"><ele>228.0</ele><time>2026-04-23T14:02:33Z</time></trkpt><trkpt lat="46.436785346238295" lon="11.34492967191833"><ele>227.5</ele><time>2026-04-23T14:02:34Z</time></trkpt><trkpt lat="46.436896593194525" lon="11.344870425221222"><ele>227.0</ele><time>2026-04-23T14:02:35Z</time></trkpt><trkpt lat="46.4370144163677" lon="11.344810493528446"><ele>227.0</ele><time>2026-04-23T14:02:36Z</time></trkpt><trkpt lat="46.437135603827926" lon="11.34474850762074"><ele>227.0</ele><time>2026-04-23T14:02:37Z</time></trkpt><trkpt lat="46.43726063556822" lon="11.344689883240395"><ele>227.0</ele><time>2026-04-23T14:02:38Z</time></trkpt><trkpt lat="46.43738876852856" lon="11.344633638731711"><ele>227.0</ele><time>2026-04-23T14:02:39Z</time></trkpt><trkpt lat="46.437521261571746" lon="11.344580700018824"><ele>228.0</ele><time>2026-04-23T14:02:40Z</time></trkpt><trkpt lat="46.437657806975196" lon="11.344529478725804"><ele>229.0</ele><time>2026-04-23T14:02:41Z</time></trkpt><trkpt lat="46.43779705231681" lon="11.344481488229357"><ele>230.0</ele><time>2026-04-23T14:02:41.999Z</time></trkpt><trkpt lat="46.43793783189813" lon="11.344436874324845"><ele>231.0</ele><time>2026-04-23T14:02:42.999Z</time></trkpt><trkpt lat="46.43807809029694" lon="11.344398362889677"><ele>231.25</ele><time>2026-04-23T14:02:43.999Z</time></trkpt><trkpt lat="46.43821953201799" lon="11.344366524661545"><ele>231.5</ele><time>2026-04-23T14:02:44.999Z</time></trkpt><trkpt lat="46.43836151826771" lon="11.344338298993762"><ele>231.75</ele><time>2026-04-23T14:02:45.999Z</time></trkpt><trkpt lat="46.43850505805015" lon="11.34431088155415"><ele>232.0</ele><time>2026-04-23T14:02:46.999Z</time></trkpt><trkpt lat="46.438646356515335" lon="11.34428540688627"><ele>232.0</ele><time>2026-04-23T14:02:47.999Z</time></trkpt><trkpt lat="46.43878681058217" lon="11.344260748514344"><ele>232.0</ele><time>2026-04-23T14:02:48.999Z</time></trkpt><trkpt lat="46.43892359253277" lon="11.344236048351947"><ele>232.0</ele><time>2026-04-23T14:02:49.999Z</time></trkpt><trkpt lat="46.43905489180294" lon="11.344210445348178"><ele>232.0</ele><time>2026-04-23T14:02:50.999Z</time></trkpt><trkpt lat="46.4391833716609" lon="11.344183878707188"><ele>232.5</ele><time>2026-04-23T14:02:51.999Z</time></trkpt><trkpt lat="46.4393122335271" lon="11.3441550719448"><ele>233.0</ele><time>2026-04-23T14:02:52.999Z</time></trkpt><trkpt lat="46.43944081407993" lon="11.344123749416594"><ele>233.5</ele><time>2026-04-23T14:02:53.999Z</time></trkpt><trkpt lat="46.4395754605952" lon="11.344092341982098"><ele>234.0</ele><time>2026-04-23T14:02:54.999Z</time></trkpt><trkpt lat="46.439716244876465" lon="11.344059364284757"><ele>234.0</ele><time>2026-04-23T14:02:55.999Z</time></trkpt><trkpt lat="46.43986448690434" lon="11.344024808228928"><ele>234.0</ele><time>2026-04-23T14:02:56.999Z</time></trkpt><trkpt lat="46.44001888305358" lon="11.343988552543028"><ele>234.0</ele><time>2026-04-23T14:02:57.999Z</time></trkpt><trkpt lat="46.440183213549936" lon="11.343948108603644"><ele>234.0</ele><time>2026-04-23T14:02:58.999Z</time></trkpt><trkpt lat="46.44036352891977" lon="11.343902263080345"><ele>234.0</ele><time>2026-04-23T14:02:59.999Z</time></trkpt><trkpt lat="46.440555625403135" lon="11.343866337859556"><ele>234.0</ele><time>2026-04-23T14:03:00.999Z</time></trkpt><trkpt lat="46.44076005381518" lon="11.343826332051426"><ele>232.5</ele><time>2026-04-23T14:03:01.999Z</time></trkpt><trkpt lat="46.4409814412801" lon="11.343795869729904"><ele>231.0</ele><time>2026-04-23T14:03:02.999Z</time></trkpt><trkpt lat="46.44123070255388" lon="11.343766268384062"><ele>232.0</ele><time>2026-04-23T14:03:03.999Z</time></trkpt><trkpt lat="46.4413123881226" lon="11.343732126185358"><ele>233.0</ele><time>2026-04-23T14:03:04.999Z</time></trkpt><trkpt lat="46.44153899559693" lon="11.343700554236785"><ele>234.0</ele><time>2026-04-23T14:03:05.999Z</time></trkpt><trkpt lat="46.44173480708984" lon="11.34365424248762"><ele>234.0</ele><time>2026-04-23T14:03:06.999Z</time></trkpt><trkpt lat="46.44190762904074" lon="11.343621922601312"><ele>234.0</ele><time>2026-04-23T14:03:07.999Z</time></trkpt><trkpt lat="46.44206794291865" lon="11.343600801983435"><ele>234.0</ele><time>2026-04-23T14:03:08.999Z</time></trkpt><trkpt lat="46.44220292083986" lon="11.343582324493404"><ele>234.39999999999998</ele><time>2026-04-23T14:03:09.999Z</time></trkpt><trkpt lat="46.442320731299056" lon="11.343567407904578"><ele>234.79999999999998</ele><time>2026-04-23T14:03:10.999Z</time></trkpt><trkpt lat="46.442429879898555" lon="11.343561096265033"><ele>235.20000000000002</ele><time>2026-04-23T14:03:11.999Z</time></trkpt><trkpt lat="46.44251587305599" lon="11.343559329602167"><ele>235.60000000000002</ele><time>2026-04-23T14:03:12.999Z</time></trkpt><trkpt lat="46.44259356699569" lon="11.343573497790269"><ele>236.0</ele><time>2026-04-23T14:03:13.999Z</time></trkpt><trkpt lat="46.44267097826513" lon="11.343597527810498"><ele>236.00000000000003</ele><time>2026-04-23T14:03:14.999Z</time></trkpt><trkpt lat="46.442748985920595" lon="11.343629493493308"><ele>236.0</ele><time>2026-04-23T14:03:15.999Z</time></trkpt><trkpt lat="46.44282732074435" lon="11.34363304742194"><ele>236.0</ele><time>2026-04-23T14:03:16.999Z</time></trkpt><trkpt lat="46.442907405985785" lon="11.343594544680213"><ele>236.0</ele><time>2026-04-23T14:03:17.999Z</time></trkpt><trkpt lat="46.442975550313314" lon="11.343513977074327"><ele>236.00000000000003</ele><time>2026-04-23T14:03:18.999Z</time></trkpt><trkpt lat="46.44302661947508" lon="11.343404616124605"><ele>236.0</ele><time>2026-04-23T14:03:19.999Z</time></trkpt><trkpt lat="46.44304553980102" lon="11.343275178711155"><ele>235.83333333333334</ele><time>2026-04-23T14:03:20.999Z</time></trkpt><trkpt lat="46.44303149753418" lon="11.34313683154688"><ele>235.66666666666669</ele><time>2026-04-23T14:03:21.999Z</time></trkpt><trkpt lat="46.44299063594509" lon="11.343014728336453"><ele>235.5</ele><time>2026-04-23T14:03:22.999Z</time></trkpt><trkpt lat="46.44292677166695" lon="11.342935517473975"><ele>235.33333333333331</ele><time>2026-04-23T14:03:23.999Z</time></trkpt><trkpt lat="46.44286251977163" lon="11.34288692409452"><ele>235.16666666666666</ele><time>2026-04-23T14:03:24.999Z</time></trkpt><trkpt lat="46.442792828654326" lon="11.342870469428602"><ele>235.0</ele><time>2026-04-23T14:03:25.999Z</time></trkpt><trkpt lat="46.44272291124119" lon="11.342850354251617"><ele>234.66666666666666</ele><time>2026-04-23T14:03:26.999Z</time></trkpt><trkpt lat="46.442659849180615" lon="11.3428067707588"><ele>234.33333333333331</ele><time>2026-04-23T14:03:27.999Z</time></trkpt><trkpt lat="46.442597227636895" lon="11.342729079250216"><ele>234.0</ele><time>2026-04-23T14:03:28.999Z</time></trkpt><trkpt lat="46.442553258640885" lon="11.342616345491985"><ele>233.66666666666669</ele><time>2026-04-23T14:03:29.999Z</time></trkpt><trkpt lat="46.44253326928938" lon="11.342478057022696"><ele>233.33333333333334</ele><time>2026-04-23T14:03:30.999Z</time></trkpt><trkpt lat="46.44252092427882" lon="11.34232733439254"><ele>233.0</ele><time>2026-04-23T14:03:31.999Z</time></trkpt><trkpt lat="46.442517655661135" lon="11.342170030402007"><ele>231.75</ele><time>2026-04-23T14:03:32.999Z</time></trkpt><trkpt lat="46.442526525151536" lon="11.342015849806032"><ele>230.5</ele><time>2026-04-23T14:03:33.999Z</time></trkpt><trkpt lat="46.44255213976274" lon="11.341860854375945"><ele>229.25</ele><time>2026-04-23T14:03:34.999Z</time></trkpt><trkpt lat="46.44259781573397" lon="11.341703975627084"><ele>228.0</ele><time>2026-04-23T14:03:35.999Z</time></trkpt><trkpt lat="46.44267832187605" lon="11.341571866912457"><ele>228.0</ele><time>2026-04-23T14:03:36.999Z</time></trkpt><trkpt lat="46.442747672966" lon="11.341417982559086"><ele>228.0</ele><time>2026-04-23T14:03:37.999Z</time></trkpt><trkpt lat="46.44283419668573" lon="11.34128223152213"><ele>228.0</ele><time>2026-04-23T14:03:38.999Z</time></trkpt><trkpt lat="46.442922079301546" lon="11.341138080330795"><ele>228.0</ele><time>2026-04-23T14:03:39.999Z</time></trkpt><trkpt lat="46.443010073694715" lon="11.340985291860994"><ele>227.75</ele><time>2026-04-23T14:03:40.999Z</time></trkpt><trkpt lat="46.443098626918456" lon="11.340828883429472"><ele>227.5</ele><time>2026-04-23T14:03:41.999Z</time></trkpt><trkpt lat="46.44319049968608" lon="11.340671231784734"><ele>227.25</ele><time>2026-04-23T14:03:42.999Z</time></trkpt><trkpt lat="46.44327843005963" lon="11.340520262915888"><ele>227.0</ele><time>2026-04-23T14:03:43.999Z</time></trkpt><trkpt lat="46.44336750517397" lon="11.340366027212793"><ele>227.0</ele><time>2026-04-23T14:03:44.999Z</time></trkpt><trkpt lat="46.44345971180805" lon="11.34021201698109"><ele>227.0</ele><time>2026-04-23T14:03:45.999Z</time></trkpt><trkpt lat="46.443553338498745" lon="11.340053869920897"><ele>227.0</ele><time>2026-04-23T14:03:46.999Z</time></trkpt><trkpt lat="46.4436499886842" lon="11.339893701231476"><ele>227.0</ele><time>2026-04-23T14:03:47.999Z</time></trkpt><trkpt lat="46.4437507699351" lon="11.339731828714347"><ele>228.33333333333334</ele><time>2026-04-23T14:03:48.999Z</time></trkpt><trkpt lat="46.44385427683466" lon="11.33957202104088"><ele>229.66666666666669</ele><time>2026-04-23T14:03:49.999Z</time></trkpt><trkpt lat="46.443961395691446" lon="11.339413377940184"><ele>231.0</ele><time>2026-04-23T14:03:50.999Z</time></trkpt><trkpt lat="46.44407167902137" lon="11.339253190617201"><ele>231.0</ele><time>2026-04-23T14:03:51.999Z</time></trkpt><trkpt lat="46.44418972861908" lon="11.339092892165361"><ele>231.0</ele><time>2026-04-23T14:03:52.999Z</time></trkpt><trkpt lat="46.44430386381488" lon="11.338939911081452"><ele>231.0</ele><time>2026-04-23T14:03:53.999Z</time></trkpt><trkpt lat="46.44442633384691" lon="11.338781698252555"><ele>230.66666666666669</ele><time>2026-04-23T14:03:54.999Z</time></trkpt><trkpt lat="46.444548624415106" lon="11.338618890316074"><ele>230.33333333333334</ele><time>2026-04-23T14:03:55.999Z</time></trkpt><trkpt lat="46.444670243551926" lon="11.338461669242827"><ele>230.0</ele><time>2026-04-23T14:03:56.999Z</time></trkpt><trkpt lat="46.44479561372888" lon="11.338306644096848"><ele>230.0</ele><time>2026-04-23T14:03:57.999Z</time></trkpt><trkpt lat="46.44492590337374" lon="11.33816097124792"><ele>230.0</ele><time>2026-04-23T14:03:58.999Z</time></trkpt><trkpt lat="46.44506436021479" lon="11.338019818526162"><ele>230.0</ele><time>2026-04-23T14:03:59.999Z</time></trkpt><trkpt lat="46.44520882242234" lon="11.33788676612338"><ele>230.0</ele><time>2026-04-23T14:04:00.999Z</time></trkpt><trkpt lat="46.445357529135954" lon="11.337772662106355"><ele>230.0</ele><time>2026-04-23T14:04:01.999Z</time></trkpt><trkpt lat="46.44550768117336" lon="11.337678454967326"><ele>230.0</ele><time>2026-04-23T14:04:02.999Z</time></trkpt><trkpt lat="46.4456501291757" lon="11.337600709382812"><ele>229.75</ele><time>2026-04-23T14:04:04Z</time></trkpt><trkpt lat="46.4457892906352" lon="11.33754182171798"><ele>229.5</ele><time>2026-04-23T14:04:05Z</time></trkpt><trkpt lat="46.445930036383665" lon="11.337482301734287"><ele>229.25</ele><time>2026-04-23T14:04:06Z</time></trkpt><trkpt lat="46.44607263925965" lon="11.337431594321894"><ele>229.0</ele><time>2026-04-23T14:04:07Z</time></trkpt><trkpt lat="46.44621868372537" lon="11.337386261422948"><ele>228.66666666666666</ele><time>2026-04-23T14:04:08Z</time></trkpt><trkpt lat="46.446364205377755" lon="11.337342505037386"><ele>228.33333333333331</ele><time>2026-04-23T14:04:09Z</time></trkpt><trkpt lat="46.44651418170312" lon="11.337298505756811"><ele>228.0</ele><time>2026-04-23T14:04:10Z</time></trkpt><trkpt lat="46.44666325571446" lon="11.337249172753374"><ele>228.33333333333331</ele><time>2026-04-23T14:04:11Z</time></trkpt><trkpt lat="46.44681951853203" lon="11.337204085044036"><ele>228.66666666666666</ele><time>2026-04-23T14:04:12Z</time></trkpt><trkpt lat="46.446980092267545" lon="11.337160367103039"><ele>229.0</ele><time>2026-04-23T14:04:13Z</time></trkpt><trkpt lat="46.447139504788844" lon="11.33711632390161"><ele>229.0</ele><time>2026-04-23T14:04:14Z</time></trkpt><trkpt lat="46.44729162926875" lon="11.337079501583927"><ele>229.0</ele><time>2026-04-23T14:04:15Z</time></trkpt><trkpt lat="46.44743232596752" lon="11.337042987710682"><ele>229.0</ele><time>2026-04-23T14:04:16Z</time></trkpt><trkpt lat="46.447569387574575" lon="11.336999992894238"><ele>229.0</ele><time>2026-04-23T14:04:17Z</time></trkpt><trkpt lat="46.447708124221926" lon="11.336960642341278"><ele>229.0</ele><time>2026-04-23T14:04:18Z</time></trkpt><trkpt lat="46.447846918487485" lon="11.336922535364995"><ele>229.0</ele><time>2026-04-23T14:04:19Z</time></trkpt><trkpt lat="46.44798564491223" lon="11.336884497044489"><ele>229.0</ele><time>2026-04-23T14:04:20Z</time></trkpt><trkpt lat="46.44812524502459" lon="11.33684862533981"><ele>229.0</ele><time>2026-04-23T14:04:21Z</time></trkpt><trkpt lat="46.44825693716129" lon="11.336812078370917"><ele>229.2</ele><time>2026-04-23T14:04:22Z</time></trkpt><trkpt lat="46.44837721007053" lon="11.336781168884643"><ele>229.39999999999998</ele><time>2026-04-23T14:04:23Z</time></trkpt><trkpt lat="46.44848733344326" lon="11.336747006193052"><ele>229.6</ele><time>2026-04-23T14:04:24Z</time></trkpt><trkpt lat="46.448592616139656" lon="11.3367164735861"><ele>229.8</ele><time>2026-04-23T14:04:25Z</time></trkpt><trkpt lat="46.44869685768146" lon="11.336687960283543"><ele>230.0</ele><time>2026-04-23T14:04:26Z</time></trkpt><trkpt lat="46.44879803395126" lon="11.33666024255171"><ele>230.50000000000003</ele><time>2026-04-23T14:04:27Z</time></trkpt><trkpt lat="46.44888012198815" lon="11.336636318011315"><ele>231.0</ele><time>2026-04-23T14:04:28Z</time></trkpt><trkpt lat="46.448982294538126" lon="11.336604615659564"><ele>231.5</ele><time>2026-04-23T14:04:30Z</time></trkpt><trkpt lat="46.449082582565595" lon="11.336584111471412"><ele>232.0</ele><time>2026-04-23T14:04:32Z</time></trkpt><trkpt lat="46.44915357087628" lon="11.336572317025901"><ele>232.50000000000003</ele><time>2026-04-23T14:04:33Z</time></trkpt><trkpt lat="46.44923491356102" lon="11.336553374464835"><ele>233.0</ele><time>2026-04-23T14:04:34Z</time></trkpt><trkpt lat="46.44933130812021" lon="11.336526696441256"><ele>233.0</ele><time>2026-04-23T14:04:35Z</time></trkpt><trkpt lat="46.44944030177209" lon="11.336492637901873"><ele>233.0</ele><time>2026-04-23T14:04:36Z</time></trkpt><trkpt lat="46.449546980157606" lon="11.336459759445136"><ele>233.0</ele><time>2026-04-23T14:04:37Z</time></trkpt><trkpt lat="46.449658606717094" lon="11.33642785252411"><ele>233.0</ele><time>2026-04-23T14:04:38Z</time></trkpt><trkpt lat="46.449778989992076" lon="11.336391597890588"><ele>232.5</ele><time>2026-04-23T14:04:39Z</time></trkpt><trkpt lat="46.449904122139166" lon="11.33635642221676"><ele>232.0</ele><time>2026-04-23T14:04:40Z</time></trkpt><trkpt lat="46.450032301202626" lon="11.336320180287604"><ele>231.5</ele><time>2026-04-23T14:04:41Z</time></trkpt><trkpt lat="46.450167538600894" lon="11.336286678951726"><ele>231.0</ele><time>2026-04-23T14:04:42Z</time></trkpt><trkpt lat="46.45030630255269" lon="11.336245960521897"><ele>231.0</ele><time>2026-04-23T14:04:43Z</time></trkpt><trkpt lat="46.45044009479282" lon="11.33620916220985"><ele>231.0</ele><time>2026-04-23T14:04:44Z</time></trkpt><trkpt lat="46.45057344840503" lon="11.336171079129814"><ele>231.0</ele><time>2026-04-23T14:04:45Z</time></trkpt><trkpt lat="46.45070644122196" lon="11.336131320545281"><ele>231.0</ele><time>2026-04-23T14:04:46Z</time></trkpt><trkpt lat="46.45083973502496" lon="11.336093995832966"><ele>231.25</ele><time>2026-04-23T14:04:47Z</time></trkpt><trkpt lat="46.45097329823515" lon="11.336052350117315"><ele>231.5</ele><time>2026-04-23T14:04:48Z</time></trkpt><trkpt lat="46.451113962094674" lon="11.336008624257792"><ele>231.75</ele><time>2026-04-23T14:04:49Z</time></trkpt><trkpt lat="46.451259728024475" lon="11.335960202038631"><ele>232.0</ele><time>2026-04-23T14:04:50Z</time></trkpt><trkpt lat="46.45141102006625" lon="11.335917584381487"><ele>232.66666666666666</ele><time>2026-04-23T14:04:51Z</time></trkpt><trkpt lat="46.45156512247867" lon="11.335877166742684"><ele>233.33333333333331</ele><time>2026-04-23T14:04:52Z</time></trkpt><trkpt lat="46.45172596129" lon="11.33583587079329"><ele>234.0</ele><time>2026-04-23T14:04:53Z</time></trkpt><trkpt lat="46.45188580753382" lon="11.335788968845234"><ele>234.0</ele><time>2026-04-23T14:04:54Z</time></trkpt><trkpt lat="46.45203924669074" lon="11.335738879982813"><ele>234.0</ele><time>2026-04-23T14:04:55Z</time></trkpt><trkpt lat="46.452185479702024" lon="11.335689848332356"><ele>234.0</ele><time>2026-04-23T14:04:56Z</time></trkpt><trkpt lat="46.452332709512234" lon="11.335645187677397"><ele>234.33333333333331</ele><time>2026-04-23T14:04:57Z</time></trkpt><trkpt lat="46.45248116261063" lon="11.335606332295376"><ele>234.66666666666666</ele><time>2026-04-23T14:04:58Z</time></trkpt><trkpt lat="46.45263160643975" lon="11.335566649062146"><ele>235.0</ele><time>2026-04-23T14:04:59Z</time></trkpt><trkpt lat="46.4527824165667" lon="11.335527683657572"><ele>234.33333333333331</ele><time>2026-04-23T14:05:00Z</time></trkpt><trkpt lat="46.45293682772107" lon="11.33548980149236"><ele>233.66666666666669</ele><time>2026-04-23T14:05:01Z</time></trkpt><trkpt lat="46.45309331764679" lon="11.335447510259362"><ele>233.0</ele><time>2026-04-23T14:05:02Z</time></trkpt><trkpt lat="46.453246106935616" lon="11.33539932491364"><ele>232.33333333333334</ele><time>2026-04-23T14:05:03Z</time></trkpt><trkpt lat="46.453399176168105" lon="11.335350648792236"><ele>231.66666666666669</ele><time>2026-04-23T14:05:04Z</time></trkpt><trkpt lat="46.453549582370194" lon="11.335306688344016"><ele>231.0</ele><time>2026-04-23T14:05:05Z</time></trkpt><trkpt lat="46.45369759481527" lon="11.335264058166823"><ele>230.66666666666669</ele><time>2026-04-23T14:05:06Z</time></trkpt><trkpt lat="46.453844696329995" lon="11.33521913509121"><ele>230.33333333333334</ele><time>2026-04-23T14:05:07Z</time></trkpt><trkpt lat="46.45398970908058" lon="11.335180187486072"><ele>230.0</ele><time>2026-04-23T14:05:07.999Z</time></trkpt><trkpt lat="46.454140732666716" lon="11.335146426750104"><ele>230.0</ele><time>2026-04-23T14:05:08.999Z</time></trkpt><trkpt lat="46.45429068038947" lon="11.335130333477684"><ele>230.0</ele><time>2026-04-23T14:05:09.999Z</time></trkpt><trkpt lat="46.45444414160198" lon="11.33513758281019"><ele>230.0</ele><time>2026-04-23T14:05:10.999Z</time></trkpt><trkpt lat="46.454601507926874" lon="11.335157226282604"><ele>230.0</ele><time>2026-04-23T14:05:11.999Z</time></trkpt><trkpt lat="46.45476176576975" lon="11.335188063313387"><ele>230.0</ele><time>2026-04-23T14:05:12.999Z</time></trkpt><trkpt lat="46.45492774671843" lon="11.33521938489822"><ele>230.0</ele><time>2026-04-23T14:05:13.999Z</time></trkpt><trkpt lat="46.455096573308076" lon="11.335244264198975"><ele>230.0</ele><time>2026-04-23T14:05:14.999Z</time></trkpt><trkpt lat="46.455266696512616" lon="11.33526057431509"><ele>230.0</ele><time>2026-04-23T14:05:15.999Z</time></trkpt><trkpt lat="46.455437444068124" lon="11.335263488745767"><ele>230.0</ele><time>2026-04-23T14:05:16.999Z</time></trkpt><trkpt lat="46.455599779400096" lon="11.335264642436057"><ele>231.0</ele><time>2026-04-23T14:05:17.999Z</time></trkpt><trkpt lat="46.45575394791182" lon="11.33527049972439"><ele>232.0</ele><time>2026-04-23T14:05:18.999Z</time></trkpt><trkpt lat="46.45590305801025" lon="11.335275796448267"><ele>233.0</ele><time>2026-04-23T14:05:19.999Z</time></trkpt><trkpt lat="46.45604920284148" lon="11.33527454658942"><ele>233.0</ele><time>2026-04-23T14:05:20.999Z</time></trkpt><trkpt lat="46.45620003948301" lon="11.335278353454594"><ele>233.0</ele><time>2026-04-23T14:05:21.999Z</time></trkpt><trkpt lat="46.45635628430049" lon="11.335284937402113"><ele>233.0</ele><time>2026-04-23T14:05:22.999Z</time></trkpt><trkpt lat="46.45651645923978" lon="11.335283892188324"><ele>233.66666666666669</ele><time>2026-04-23T14:05:23.999Z</time></trkpt><trkpt lat="46.456669168542994" lon="11.335289193010462"><ele>234.33333333333331</ele><time>2026-04-23T14:05:24.999Z</time></trkpt><trkpt lat="46.45682825795324" lon="11.335271387597043"><ele>235.0</ele><time>2026-04-23T14:05:25.999Z</time></trkpt><trkpt lat="46.45698382048571" lon="11.335254979001684"><ele>235.0</ele><time>2026-04-23T14:05:26.999Z</time></trkpt><trkpt lat="46.457133446613724" lon="11.335228965391083"><ele>235.0</ele><time>2026-04-23T14:05:27.999Z</time></trkpt><trkpt lat="46.45727187119022" lon="11.335193222338068"><ele>235.0</ele><time>2026-04-23T14:05:28.999Z</time></trkpt><trkpt lat="46.45739428089106" lon="11.335151444486732"><ele>235.0</ele><time>2026-04-23T14:05:29.999Z</time></trkpt><trkpt lat="46.45750418023889" lon="11.335113174177941"><ele>235.0</ele><time>2026-04-23T14:05:30.999Z</time></trkpt><trkpt lat="46.4575910612958" lon="11.33508296068004"><ele>235.0</ele><time>2026-04-23T14:05:31.999Z</time></trkpt><trkpt lat="46.457664979006864" lon="11.33505595719051"><ele>235.0</ele><time>2026-04-23T14:05:32.999Z</time></trkpt><trkpt lat="46.45775613468311" lon="11.335021764075705"><ele>235.0</ele><time>2026-04-23T14:05:34.999Z</time></trkpt><trkpt lat="46.457853123819056" lon="11.334973320826556"><ele>235.0</ele><time>2026-04-23T14:05:54.999Z</time></trkpt><trkpt lat="46.45799116153291" lon="11.334927454009998"><ele>235.2</ele><time>2026-04-23T14:05:56.999Z</time></trkpt><trkpt lat="46.45806950483337" lon="11.33489097664308"><ele>235.4</ele><time>2026-04-23T14:05:57.999Z</time></trkpt><trkpt lat="46.4581528059586" lon="11.334845428174733"><ele>235.60000000000002</ele><time>2026-04-23T14:05:58.999Z</time></trkpt><trkpt lat="46.45824299489761" lon="11.334785749636879"><ele>235.8</ele><time>2026-04-23T14:05:59.999Z</time></trkpt><trkpt lat="46.45832845061909" lon="11.334697127182642"><ele>236.0</ele><time>2026-04-23T14:06:00.999Z</time></trkpt><trkpt lat="46.45840805144908" lon="11.334584857477672"><ele>237.0</ele><time>2026-04-23T14:06:01.999Z</time></trkpt><trkpt lat="46.45847188424265" lon="11.334457985126088"><ele>238.0</ele><time>2026-04-23T14:06:02.999Z</time></trkpt><trkpt lat="46.45852547137963" lon="11.334313443869945"><ele>239.0</ele><time>2026-04-23T14:06:03.999Z</time></trkpt><trkpt lat="46.45858027832894" lon="11.33416115667643"><ele>240.0</ele><time>2026-04-23T14:06:04.999Z</time></trkpt><trkpt lat="46.45863980485472" lon="11.334009118761495"><ele>239.8</ele><time>2026-04-23T14:06:05.999Z</time></trkpt><trkpt lat="46.45871255038442" lon="11.333865400975338"><ele>239.6</ele><time>2026-04-23T14:06:06.999Z</time></trkpt><trkpt lat="46.458784422702806" lon="11.333736662667318"><ele>239.39999999999998</ele><time>2026-04-23T14:06:07.999Z</time></trkpt><trkpt lat="46.45885136557321" lon="11.333621268600446"><ele>239.2</ele><time>2026-04-23T14:06:09.001Z</time></trkpt><trkpt lat="46.45891651966729" lon="11.33351654158551"><ele>239.0</ele><time>2026-04-23T14:06:10.001Z</time></trkpt><trkpt lat="46.45899216358184" lon="11.333414286414529"><ele>239.0</ele><time>2026-04-23T14:06:11.001Z</time></trkpt><trkpt lat="46.459070401345905" lon="11.333317064106172"><ele>238.99999999999997</ele><time>2026-04-23T14:06:12.001Z</time></trkpt><trkpt lat="46.459142418514475" lon="11.333231201140018"><ele>238.99999999999997</ele><time>2026-04-23T14:06:13.001Z</time></trkpt><trkpt lat="46.459209466505726" lon="11.333154881199858"><ele>239.0</ele><time>2026-04-23T14:06:14.001Z</time></trkpt><trkpt lat="46.45926858959117" lon="11.333093542676798"><ele>239.0</ele><time>2026-04-23T14:06:15.001Z</time></trkpt><trkpt lat="46.45935462363597" lon="11.333011374051514"><ele>238.66666666666669</ele><time>2026-04-23T14:06:17.001Z</time></trkpt><trkpt lat="46.45941563540421" lon="11.33296562192777"><ele>238.33333333333334</ele><time>2026-04-23T14:06:20.001Z</time></trkpt><trkpt lat="46.45951820079969" lon="11.332876535411424"><ele>238.0</ele><time>2026-04-23T14:06:51Z</time></trkpt><trkpt lat="46.459629776401435" lon="11.332819863346238"><ele>237.66666666666669</ele><time>2026-04-23T14:06:53Z</time></trkpt><trkpt lat="46.459692567562286" lon="11.332807508191861"><ele>237.33333333333334</ele><time>2026-04-23T14:06:54Z</time></trkpt><trkpt lat="46.45976061104298" lon="11.332802266198565"><ele>237.0</ele><time>2026-04-23T14:06:55Z</time></trkpt><trkpt lat="46.45982686081155" lon="11.332806958276695"><ele>237.0</ele><time>2026-04-23T14:06:56Z</time></trkpt><trkpt lat="46.45991096398784" lon="11.332836452024988"><ele>237.0</ele><time>2026-04-23T14:07:06Z</time></trkpt><trkpt lat="46.460008808555784" lon="11.3328663785049"><ele>237.0</ele><time>2026-04-23T14:07:08Z</time></trkpt><trkpt lat="46.46008391716058" lon="11.332900242446637"><ele>237.0</ele><time>2026-04-23T14:07:09Z</time></trkpt><trkpt lat="46.460157684470175" lon="11.332937971412978"><ele>237.0</ele><time>2026-04-23T14:07:10Z</time></trkpt><trkpt lat="46.46024984080827" lon="11.33298568927316"><ele>237.0</ele><time>2026-04-23T14:07:11Z</time></trkpt><trkpt lat="46.46035529507034" lon="11.333039203728227"><ele>237.25</ele><time>2026-04-23T14:07:12Z</time></trkpt><trkpt lat="46.460460070339856" lon="11.333095403285181"><ele>237.5</ele><time>2026-04-23T14:07:13Z</time></trkpt><trkpt lat="46.46057594167821" lon="11.333158121042704"><ele>237.75</ele><time>2026-04-23T14:07:13.999Z</time></trkpt><trkpt lat="46.460698841750514" lon="11.333228226670187"><ele>238.0</ele><time>2026-04-23T14:07:14.999Z</time></trkpt><trkpt lat="46.46082760655583" lon="11.333301852084952"><ele>238.0</ele><time>2026-04-23T14:07:15.999Z</time></trkpt><trkpt lat="46.46095578559842" lon="11.333369709356711"><ele>238.0</ele><time>2026-04-23T14:07:16.999Z</time></trkpt><trkpt lat="46.4610716415779" lon="11.333438959817792"><ele>238.0</ele><time>2026-04-23T14:07:17.999Z</time></trkpt><trkpt lat="46.461198087410985" lon="11.333498858673675"><ele>238.0</ele><time>2026-04-23T14:07:18.999Z</time></trkpt><trkpt lat="46.46132429003202" lon="11.333545884495717"><ele>237.60000000000002</ele><time>2026-04-23T14:07:19.999Z</time></trkpt><trkpt lat="46.46143907097829" lon="11.333578259557031"><ele>237.20000000000002</ele><time>2026-04-23T14:07:20.999Z</time></trkpt><trkpt lat="46.46154604771977" lon="11.333603799281622"><ele>236.8</ele><time>2026-04-23T14:07:21.999Z</time></trkpt><trkpt lat="46.46164605827586" lon="11.33360543778686"><ele>236.4</ele><time>2026-04-23T14:07:22.999Z</time></trkpt><trkpt lat="46.46176007182249" lon="11.333588217035366"><ele>236.0</ele><time>2026-04-23T14:07:23.999Z</time></trkpt><trkpt lat="46.4618787705746" lon="11.333570952279468"><ele>236.0</ele><time>2026-04-23T14:07:24.999Z</time></trkpt><trkpt lat="46.46200176268649" lon="11.333576019501445"><ele>236.0</ele><time>2026-04-23T14:07:25.999Z</time></trkpt><trkpt lat="46.46210850761736" lon="11.333564497597868"><ele>236.0</ele><time>2026-04-23T14:07:26.999Z</time></trkpt><trkpt lat="46.46222527794058" lon="11.333549093795213"><ele>236.0</ele><time>2026-04-23T14:07:27.999Z</time></trkpt><trkpt lat="46.46234401021089" lon="11.33352696066191"><ele>236.75</ele><time>2026-04-23T14:07:28.999Z</time></trkpt><trkpt lat="46.46244154268476" lon="11.333458851056298"><ele>237.5</ele><time>2026-04-23T14:07:29.999Z</time></trkpt><trkpt lat="46.46256547663491" lon="11.333426326524513"><ele>238.25</ele><time>2026-04-23T14:07:30.999Z</time></trkpt><trkpt lat="46.46267857202636" lon="11.33339066225603"><ele>239.0</ele><time>2026-04-23T14:07:31.999Z</time></trkpt><trkpt lat="46.46280092319983" lon="11.33336171683511"><ele>239.0</ele><time>2026-04-23T14:07:32.999Z</time></trkpt><trkpt lat="46.462916667546814" lon="11.333317758353104"><ele>239.0</ele><time>2026-04-23T14:07:33.999Z</time></trkpt><trkpt lat="46.46303819401327" lon="11.333284967133539"><ele>239.0</ele><time>2026-04-23T14:07:34.999Z</time></trkpt><trkpt lat="46.46316061296187" lon="11.333252772597142"><ele>239.0</ele><time>2026-04-23T14:07:35.999Z</time></trkpt><trkpt lat="46.46327953385774" lon="11.333222873454707"><ele>239.5</ele><time>2026-04-23T14:07:36.999Z</time></trkpt><trkpt lat="46.463395714888435" lon="11.333183182491739"><ele>240.0</ele><time>2026-04-23T14:07:37.999Z</time></trkpt><trkpt lat="46.4635187058246" lon="11.333149566663064"><ele>240.5</ele><time>2026-04-23T14:07:38.999Z</time></trkpt><trkpt lat="46.4636460005164" lon="11.333123675627206"><ele>241.0</ele><time>2026-04-23T14:07:39.999Z</time></trkpt><trkpt lat="46.463773695514305" lon="11.333123388784493"><ele>241.20000000000002</ele><time>2026-04-23T14:07:40.999Z</time></trkpt><trkpt lat="46.46388569568188" lon="11.33313394127665"><ele>241.40000000000003</ele><time>2026-04-23T14:07:41.999Z</time></trkpt><trkpt lat="46.463989647556474" lon="11.333143436075021"><ele>241.6</ele><time>2026-04-23T14:07:42.999Z</time></trkpt><trkpt lat="46.46407458181857" lon="11.333154152337384"><ele>241.8</ele><time>2026-04-23T14:07:43.999Z</time></trkpt><trkpt lat="46.46415213790459" lon="11.333158218264355"><ele>242.0</ele><time>2026-04-23T14:07:44.999Z</time></trkpt><trkpt lat="46.46424650602765" lon="11.33317552707077"><ele>242.0</ele><time>2026-04-23T14:07:46.999Z</time></trkpt><trkpt lat="46.46435187497485" lon="11.333183648437533"><ele>242.0</ele><time>2026-04-23T14:07:49.999Z</time></trkpt><trkpt lat="46.464475255030194" lon="11.333187611772663"><ele>242.0</ele><time>2026-04-23T14:07:51.999Z</time></trkpt><trkpt lat="46.464550773047385" lon="11.333188346468464"><ele>242.0</ele><time>2026-04-23T14:07:52.999Z</time></trkpt><trkpt lat="46.464632697799495" lon="11.333194217357697"><ele>242.0</ele><time>2026-04-23T14:07:53.999Z</time></trkpt><trkpt lat="46.46472563034161" lon="11.333198050117291"><ele>242.0</ele><time>2026-04-23T14:07:54.999Z</time></trkpt><trkpt lat="46.46482517561153" lon="11.333201111123055"><ele>242.0</ele><time>2026-04-23T14:07:55.999Z</time></trkpt><trkpt lat="46.46493044584331" lon="11.333205453404934"><ele>242.0</ele><time>2026-04-23T14:07:56.999Z</time></trkpt><trkpt lat="46.46504138409726" lon="11.333210912544654"><ele>242.0</ele><time>2026-04-23T14:07:57.999Z</time></trkpt><trkpt lat="46.46515580582628" lon="11.333212668662695"><ele>242.0</ele><time>2026-04-23T14:07:58.999Z</time></trkpt><trkpt lat="46.46527664514571" lon="11.33322098142056"><ele>242.0</ele><time>2026-04-23T14:07:59.999Z</time></trkpt><trkpt lat="46.46540333955181" lon="11.333240262759194"><ele>242.0</ele><time>2026-04-23T14:08:00.999Z</time></trkpt><trkpt lat="46.46552986563401" lon="11.333280821240495"><ele>242.0</ele><time>2026-04-23T14:08:01.999Z</time></trkpt><trkpt lat="46.46565691672728" lon="11.333327474645086"><ele>242.0</ele><time>2026-04-23T14:08:02.999Z</time></trkpt><trkpt lat="46.46578842128118" lon="11.333377631906382"><ele>241.5</ele><time>2026-04-23T14:08:03.999Z</time></trkpt><trkpt lat="46.46591213077158" lon="11.3334209211791"><ele>241.0</ele><time>2026-04-23T14:08:04.999Z</time></trkpt><trkpt lat="46.46602564393991" lon="11.333469206835305"><ele>240.5</ele><time>2026-04-23T14:08:05.999Z</time></trkpt><trkpt lat="46.46613041815805" lon="11.333507817492212"><ele>240.0</ele><time>2026-04-23T14:08:06.999Z</time></trkpt><trkpt lat="46.46622769816643" lon="11.333549623348334"><ele>240.33333333333334</ele><time>2026-04-23T14:08:07.999Z</time></trkpt><trkpt lat="46.46630984901901" lon="11.33359784710862"><ele>240.66666666666669</ele><time>2026-04-23T14:08:08.999Z</time></trkpt><trkpt lat="46.466379507544694" lon="11.33363800404273"><ele>241.0</ele><time>2026-04-23T14:08:09.999Z</time></trkpt><trkpt lat="46.46644213335089" lon="11.33368829359935"><ele>241.33333333333334</ele><time>2026-04-23T14:08:12.999Z</time></trkpt><trkpt lat="46.46653608278873" lon="11.333751817495626"><ele>241.66666666666669</ele><time>2026-04-23T14:08:29Z</time></trkpt><trkpt lat="46.466598620618306" lon="11.333798340266911"><ele>242.0</ele><time>2026-04-23T14:08:30Z</time></trkpt><trkpt lat="46.46666846130656" lon="11.33384866717241"><ele>242.50000000000003</ele><time>2026-04-23T14:08:31Z</time></trkpt><trkpt lat="46.46674415423245" lon="11.333907405099202"><ele>243.0</ele><time>2026-04-23T14:08:32Z</time></trkpt><trkpt lat="46.46680989708808" lon="11.33396882348904"><ele>243.5</ele><time>2026-04-23T14:08:33Z</time></trkpt><trkpt lat="46.466875770422625" lon="11.334025980685178"><ele>244.0</ele><time>2026-04-23T14:08:34Z</time></trkpt><trkpt lat="46.46694043971998" lon="11.334086569944962"><ele>244.50000000000003</ele><time>2026-04-23T14:08:35Z</time></trkpt><trkpt lat="46.46700791012122" lon="11.33413697385109"><ele>245.0</ele><time>2026-04-23T14:08:36Z</time></trkpt><trkpt lat="46.46707383203502" lon="11.33418178949432"><ele>244.83333333333334</ele><time>2026-04-23T14:08:37Z</time></trkpt><trkpt lat="46.46713745185962" lon="11.334220561321716"><ele>244.66666666666669</ele><time>2026-04-23T14:08:38Z</time></trkpt><trkpt lat="46.46719586280814" lon="11.334255872283238"><ele>244.5</ele><time>2026-04-23T14:08:39Z</time></trkpt><trkpt lat="46.46725887806667" lon="11.334289004621553"><ele>244.33333333333331</ele><time>2026-04-23T14:08:40Z</time></trkpt><trkpt lat="46.46731882927478" lon="11.33431777837239"><ele>244.16666666666666</ele><time>2026-04-23T14:08:41Z</time></trkpt><trkpt lat="46.46742343863719" lon="11.334351692456435"><ele>244.0</ele><time>2026-04-23T14:08:43Z</time></trkpt><trkpt lat="46.467533957139665" lon="11.334401901608821"><ele>243.99999999999997</ele><time>2026-04-23T14:08:45Z</time></trkpt><trkpt lat="46.46759888475375" lon="11.334441207539948"><ele>244.0</ele><time>2026-04-23T14:08:46Z</time></trkpt><trkpt lat="46.46768024456161" lon="11.33447069788941"><ele>244.0</ele><time>2026-04-23T14:08:47Z</time></trkpt><trkpt lat="46.467755416736026" lon="11.334511028607789"><ele>244.0</ele><time>2026-04-23T14:08:48Z</time></trkpt><trkpt lat="46.467831250680575" lon="11.334544512770101"><ele>243.99999999999997</ele><time>2026-04-23T14:08:49Z</time></trkpt><trkpt lat="46.467899577473574" lon="11.334576522555158"><ele>244.0</ele><time>2026-04-23T14:08:50Z</time></trkpt><trkpt lat="46.467968339702566" lon="11.334611535634156"><ele>244.0</ele><time>2026-04-23T14:08:51Z</time></trkpt><trkpt lat="46.46804524839357" lon="11.334646557520516"><ele>243.99999999999997</ele><time>2026-04-23T14:08:52Z</time></trkpt><trkpt lat="46.46813063477086" lon="11.334692148126587"><ele>243.99999999999997</ele><time>2026-04-23T14:08:53Z</time></trkpt><trkpt lat="46.46823411777931" lon="11.334741214864033"><ele>244.0</ele><time>2026-04-23T14:08:54Z</time></trkpt><trkpt lat="46.46833173901741" lon="11.334788481704575"><ele>244.0</ele><time>2026-04-23T14:08:55Z</time></trkpt><trkpt lat="46.46842409867112" lon="11.334838431932324"><ele>244.0</ele><time>2026-04-23T14:08:56Z</time></trkpt><trkpt lat="46.46851106468289" lon="11.334882925033753"><ele>243.99999999999997</ele><time>2026-04-23T14:08:57Z</time></trkpt><trkpt lat="46.46859700184909" lon="11.334929955152589"><ele>243.99999999999997</ele><time>2026-04-23T14:08:58Z</time></trkpt><trkpt lat="46.468686007925214" lon="11.334980704703673"><ele>244.0</ele><time>2026-04-23T14:08:59Z</time></trkpt><trkpt lat="46.468777331344086" lon="11.335036058550482"><ele>244.0</ele><time>2026-04-23T14:09:00Z</time></trkpt><trkpt lat="46.4688720432909" lon="11.335092996732035"><ele>244.66666666666666</ele><time>2026-04-23T14:09:01Z</time></trkpt><trkpt lat="46.46897016067898" lon="11.3351518370117"><ele>245.33333333333331</ele><time>2026-04-23T14:09:02Z</time></trkpt><trkpt lat="46.46906102995085" lon="11.335204002357631"><ele>246.0</ele><time>2026-04-23T14:09:03Z</time></trkpt><trkpt lat="46.46913897432891" lon="11.335253207876939"><ele>246.66666666666669</ele><time>2026-04-23T14:09:04Z</time></trkpt><trkpt lat="46.46920164987348" lon="11.335291200477503"><ele>247.33333333333334</ele><time>2026-04-23T14:09:05Z</time></trkpt><trkpt lat="46.46926702339635" lon="11.335330682893597"><ele>248.0</ele><time>2026-04-23T14:09:07Z</time></trkpt><trkpt lat="46.469336702180456" lon="11.335377682720111"><ele>248.00000000000003</ele><time>2026-04-23T14:09:28.999Z</time></trkpt><trkpt lat="46.46942449124853" lon="11.335427385271236"><ele>248.0</ele><time>2026-04-23T14:09:30.999Z</time></trkpt><trkpt lat="46.46948376834405" lon="11.335463076895154"><ele>248.0</ele><time>2026-04-23T14:09:31.999Z</time></trkpt><trkpt lat="46.46959685497064" lon="11.335534401165658"><ele>248.0</ele><time>2026-04-23T14:09:33.999Z</time></trkpt><trkpt lat="46.46966129324029" lon="11.33557637890526"><ele>248.00000000000003</ele><time>2026-04-23T14:09:34.999Z</time></trkpt><trkpt lat="46.46973257182761" lon="11.335636041717969"><ele>248.0</ele><time>2026-04-23T14:09:35.999Z</time></trkpt><trkpt lat="46.46981405195174" lon="11.335706240794071"><ele>246.4</ele><time>2026-04-23T14:09:36.999Z</time></trkpt><trkpt lat="46.46989762444265" lon="11.335785120346657"><ele>244.8</ele><time>2026-04-23T14:09:37.999Z</time></trkpt><trkpt lat="46.46997996459932" lon="11.335860860370918"><ele>243.2</ele><time>2026-04-23T14:09:38.999Z</time></trkpt><trkpt lat="46.470065302662896" lon="11.335939519618124"><ele>241.6</ele><time>2026-04-23T14:09:39.999Z</time></trkpt><trkpt lat="46.4701504315674" lon="11.336023218962184"><ele>240.0</ele><time>2026-04-23T14:09:40.999Z</time></trkpt><trkpt lat="46.470236641316255" lon="11.336105145533194"><ele>240.0</ele><time>2026-04-23T14:09:41.999Z</time></trkpt><trkpt lat="46.47032165786035" lon="11.336192350253564"><ele>240.0</ele><time>2026-04-23T14:09:42.999Z</time></trkpt><trkpt lat="46.470405559731724" lon="11.336277684510843"><ele>240.0</ele><time>2026-04-23T14:09:43.999Z</time></trkpt><trkpt lat="46.4704827362395" lon="11.336362949815198"><ele>240.0</ele><time>2026-04-23T14:09:44.999Z</time></trkpt><trkpt lat="46.47054834741907" lon="11.33644117552094"><ele>240.0</ele><time>2026-04-23T14:09:45.999Z</time></trkpt><trkpt lat="46.47061108752348" lon="11.336508343746388"><ele>240.16666666666666</ele><time>2026-04-23T14:09:46.999Z</time></trkpt><trkpt lat="46.47067016552281" lon="11.336579021117206"><ele>240.33333333333331</ele><time>2026-04-23T14:09:47.999Z</time></trkpt><trkpt lat="46.470735314962056" lon="11.336652293848589"><ele>240.5</ele><time>2026-04-23T14:09:48.999Z</time></trkpt><trkpt lat="46.47080450970725" lon="11.336725929494806"><ele>240.66666666666666</ele><time>2026-04-23T14:09:49.999Z</time></trkpt><trkpt lat="46.470880826639245" lon="11.33680165783572"><ele>240.83333333333331</ele><time>2026-04-23T14:09:50.999Z</time></trkpt><trkpt lat="46.470958808489755" lon="11.336875805085434"><ele>241.0</ele><time>2026-04-23T14:09:51.999Z</time></trkpt><trkpt lat="46.47104233646581" lon="11.336954820968018"><ele>241.0</ele><time>2026-04-23T14:09:52.999Z</time></trkpt><trkpt lat="46.471125351708466" lon="11.33703973508847"><ele>241.00000000000003</ele><time>2026-04-23T14:09:53.999Z</time></trkpt><trkpt lat="46.471213867946894" lon="11.33712075805567"><ele>241.00000000000003</ele><time>2026-04-23T14:09:54.999Z</time></trkpt><trkpt lat="46.47129807764029" lon="11.337194510971571"><ele>241.0</ele><time>2026-04-23T14:09:55.999Z</time></trkpt><trkpt lat="46.47137541655858" lon="11.337261294031169"><ele>241.0</ele><time>2026-04-23T14:09:56.999Z</time></trkpt><trkpt lat="46.47145405967266" lon="11.337324433052865"><ele>241.60000000000002</ele><time>2026-04-23T14:09:57.999Z</time></trkpt><trkpt lat="46.47153798522032" lon="11.337381261591085"><ele>242.20000000000002</ele><time>2026-04-23T14:09:58.999Z</time></trkpt><trkpt lat="46.47162598131249" lon="11.337430344793942"><ele>242.79999999999998</ele><time>2026-04-23T14:09:59.999Z</time></trkpt><trkpt lat="46.47171980502261" lon="11.337469435413079"><ele>243.39999999999998</ele><time>2026-04-23T14:10:00.999Z</time></trkpt><trkpt lat="46.471817814835255" lon="11.337492751914956"><ele>244.0</ele><time>2026-04-23T14:10:01.999Z</time></trkpt><trkpt lat="46.47191699247708" lon="11.337495213869206"><ele>244.0</ele><time>2026-04-23T14:10:02.999Z</time></trkpt><trkpt lat="46.472006287808654" lon="11.337486793360686"><ele>243.99999999999997</ele><time>2026-04-23T14:10:03.999Z</time></trkpt><trkpt lat="46.47211411255943" lon="11.33746137990049"><ele>243.99999999999997</ele><time>2026-04-23T14:10:05.999Z</time></trkpt><trkpt lat="46.47219313374399" lon="11.337452069775688"><ele>244.0</ele><time>2026-04-23T14:10:07.999Z</time></trkpt><trkpt lat="46.472308431589546" lon="11.337434090001453"><ele>244.0</ele><time>2026-04-23T14:10:09.999Z</time></trkpt><trkpt lat="46.47238152065564" lon="11.337420650493714"><ele>243.79999999999998</ele><time>2026-04-23T14:10:10.999Z</time></trkpt><trkpt lat="46.47245863989451" lon="11.337410637231002"><ele>243.59999999999997</ele><time>2026-04-23T14:10:11.999Z</time></trkpt><trkpt lat="46.47253969370186" lon="11.337402834477476"><ele>243.4</ele><time>2026-04-23T14:10:12.999Z</time></trkpt><trkpt lat="46.47263132422889" lon="11.337393167738554"><ele>243.2</ele><time>2026-04-23T14:10:13.998Z</time></trkpt><trkpt lat="46.47273459223511" lon="11.33737655472182"><ele>243.0</ele><time>2026-04-23T14:10:14.998Z</time></trkpt><trkpt lat="46.47283611322673" lon="11.337365425750294"><ele>243.5</ele><time>2026-04-23T14:10:15.998Z</time></trkpt><trkpt lat="46.47294725888739" lon="11.337359708316223"><ele>244.0</ele><time>2026-04-23T14:10:16.998Z</time></trkpt><trkpt lat="46.47306272889198" lon="11.337364674902807"><ele>244.5</ele><time>2026-04-23T14:10:17.998Z</time></trkpt><trkpt lat="46.473182258565316" lon="11.337373457086516"><ele>245.0</ele><time>2026-04-23T14:10:18.998Z</time></trkpt><trkpt lat="46.473306216652254" lon="11.337381466911285"><ele>245.0</ele><time>2026-04-23T14:10:20Z</time></trkpt><trkpt lat="46.4734303197546" lon="11.33738667739429"><ele>245.0</ele><time>2026-04-23T14:10:21Z</time></trkpt><trkpt lat="46.47354928089306" lon="11.337392854395949"><ele>245.0</ele><time>2026-04-23T14:10:22Z</time></trkpt><trkpt lat="46.47366612103024" lon="11.337396863021038"><ele>245.0</ele><time>2026-04-23T14:10:23Z</time></trkpt><trkpt lat="46.4737802337987" lon="11.337400580668607"><ele>244.75</ele><time>2026-04-23T14:10:24Z</time></trkpt><trkpt lat="46.473895301307465" lon="11.337400847667897"><ele>244.5</ele><time>2026-04-23T14:10:25Z</time></trkpt><trkpt lat="46.47400893065932" lon="11.337401131077687"><ele>244.25</ele><time>2026-04-23T14:10:26Z</time></trkpt><trkpt lat="46.474125063448945" lon="11.337406800186162"><ele>244.0</ele><time>2026-04-23T14:10:27Z</time></trkpt><trkpt lat="46.474242821667794" lon="11.337416248415737"><ele>244.0</ele><time>2026-04-23T14:10:28Z</time></trkpt><trkpt lat="46.4743626619578" lon="11.337424840268733"><ele>243.99999999999997</ele><time>2026-04-23T14:10:29Z</time></trkpt><trkpt lat="46.4744819702801" lon="11.337433243950514"><ele>243.99999999999997</ele><time>2026-04-23T14:10:30Z</time></trkpt><trkpt lat="46.47459070656479" lon="11.337442978795869"><ele>244.0</ele><time>2026-04-23T14:10:31Z</time></trkpt><trkpt lat="46.474689117499274" lon="11.337452784525562"><ele>244.0</ele><time>2026-04-23T14:10:32Z</time></trkpt><trkpt lat="46.474781070596016" lon="11.3374594548575"><ele>244.39999999999998</ele><time>2026-04-23T14:10:33Z</time></trkpt><trkpt lat="46.474867752121284" lon="11.337468078665024"><ele>244.79999999999998</ele><time>2026-04-23T14:10:34Z</time></trkpt><trkpt lat="46.47496231083687" lon="11.337473034536202"><ele>245.20000000000002</ele><time>2026-04-23T14:10:35Z</time></trkpt><trkpt lat="46.47506211565707" lon="11.337480070183263"><ele>245.60000000000002</ele><time>2026-04-23T14:10:36Z</time></trkpt><trkpt lat="46.47517013072541" lon="11.3374917712291"><ele>246.0</ele><time>2026-04-23T14:10:37Z</time></trkpt><trkpt lat="46.47528384649032" lon="11.337502447369701"><ele>246.0</ele><time>2026-04-23T14:10:38Z</time></trkpt><trkpt lat="46.47540735408871" lon="11.337518348025235"><ele>246.0</ele><time>2026-04-23T14:10:39Z</time></trkpt><trkpt lat="46.475531216005145" lon="11.33754721703052"><ele>246.0</ele><time>2026-04-23T14:10:40Z</time></trkpt><trkpt lat="46.47565109700967" lon="11.33758399578384"><ele>246.0</ele><time>2026-04-23T14:10:41Z</time></trkpt><trkpt lat="46.47576928528069" lon="11.337632232029769"><ele>245.0</ele><time>2026-04-23T14:10:42Z</time></trkpt><trkpt lat="46.475886310412136" lon="11.3376795924152"><ele>244.0</ele><time>2026-04-23T14:10:43Z</time></trkpt><trkpt lat="46.47600351526378" lon="11.33772646635068"><ele>243.0</ele><time>2026-04-23T14:10:44Z</time></trkpt><trkpt lat="46.476119252422315" lon="11.33777708949194"><ele>242.0</ele><time>2026-04-23T14:10:45Z</time></trkpt><trkpt lat="46.4762330956198" lon="11.337832319842601"><ele>241.75</ele><time>2026-04-23T14:10:46Z</time></trkpt><trkpt lat="46.47634623186752" lon="11.3378868324568"><ele>241.5</ele><time>2026-04-23T14:10:47Z</time></trkpt><trkpt lat="46.4764573895827" lon="11.337942925501965"><ele>241.25</ele><time>2026-04-23T14:10:48Z</time></trkpt><trkpt lat="46.47656889181414" lon="11.33799897504895"><ele>241.0</ele><time>2026-04-23T14:10:49Z</time></trkpt><trkpt lat="46.47668032604237" lon="11.33805335227586"><ele>241.75</ele><time>2026-04-23T14:10:50Z</time></trkpt><trkpt lat="46.47679447764467" lon="11.33810813412496"><ele>242.5</ele><time>2026-04-23T14:10:51Z</time></trkpt><trkpt lat="46.476911128230434" lon="11.338162523707656"><ele>243.25</ele><time>2026-04-23T14:10:52Z</time></trkpt><trkpt lat="46.477022484243534" lon="11.338216622628092"><ele>244.0</ele><time>2026-04-23T14:10:53Z</time></trkpt><trkpt lat="46.47712656663988" lon="11.33826856452661"><ele>243.99999999999997</ele><time>2026-04-23T14:10:53.999Z</time></trkpt><trkpt lat="46.47722042803581" lon="11.338317877011836"><ele>244.0</ele><time>2026-04-23T14:10:54.999Z</time></trkpt><trkpt lat="46.477303193211334" lon="11.338361912145672"><ele>244.0</ele><time>2026-04-23T14:10:55.999Z</time></trkpt><trkpt lat="46.477366701608986" lon="11.338397582596857"><ele>244.0</ele><time>2026-04-23T14:10:56.999Z</time></trkpt><trkpt lat="46.477434076989084" lon="11.33843144661673"><ele>243.99999999999997</ele><time>2026-04-23T14:10:58.999Z</time></trkpt><trkpt lat="46.477337927398004" lon="11.338375402884019"><ele>244.0</ele><time>2026-04-23T14:11:27.999Z</time></trkpt><trkpt lat="46.477455847913404" lon="11.338258642704687"><ele>244.0</ele><time>2026-04-23T14:13:34.999Z</time></trkpt><trkpt lat="46.47738979597115" lon="11.338252100528502"><ele>243.99999999999997</ele><time>2026-04-23T14:13:50.998Z</time></trkpt><trkpt lat="46.47729684603955" lon="11.338194355153519"><ele>243.99999999999997</ele><time>2026-04-23T14:14:17.998Z</time></trkpt><trkpt lat="46.4772075953152" lon="11.338200765089363"><ele>244.0</ele><time>2026-04-23T14:14:20.998Z</time></trkpt><trkpt lat="46.47708138116552" lon="11.338192177776152"><ele>244.0</ele><time>2026-04-23T14:14:22.998Z</time></trkpt><trkpt lat="46.477005430698355" lon="11.338146980765233"><ele>244.39999999999998</ele><time>2026-04-23T14:14:23.998Z</time></trkpt><trkpt lat="46.476920959679966" lon="11.338106505897223"><ele>244.79999999999998</ele><time>2026-04-23T14:14:24.998Z</time></trkpt><trkpt lat="46.47682224622135" lon="11.338055716054573"><ele>245.20000000000002</ele><time>2026-04-23T14:14:25.998Z</time></trkpt><trkpt lat="46.47671479907716" lon="11.338002599798136"><ele>245.60000000000002</ele><time>2026-04-23T14:14:26.998Z</time></trkpt><trkpt lat="46.47660757425198" lon="11.337953137823849"><ele>246.0</ele><time>2026-04-23T14:14:27.998Z</time></trkpt><trkpt lat="46.476490215544096" lon="11.337898236524644"><ele>245.0</ele><time>2026-04-23T14:14:28.998Z</time></trkpt><trkpt lat="46.476370102266344" lon="11.337839174611675"><ele>244.0</ele><time>2026-04-23T14:14:29.998Z</time></trkpt><trkpt lat="46.47624762686848" lon="11.337777270654742"><ele>243.0</ele><time>2026-04-23T14:14:30.998Z</time></trkpt><trkpt lat="46.476122593382094" lon="11.337717586616321"><ele>242.0</ele><time>2026-04-23T14:14:31.999Z</time></trkpt><trkpt lat="46.475999919507" lon="11.33765957080461"><ele>242.0</ele><time>2026-04-23T14:14:32.999Z</time></trkpt><trkpt lat="46.47587671950831" lon="11.337605862958993"><ele>242.0</ele><time>2026-04-23T14:14:33.999Z</time></trkpt><trkpt lat="46.47575720523816" lon="11.337552689300976"><ele>242.0</ele><time>2026-04-23T14:14:34.999Z</time></trkpt><trkpt lat="46.47564115102544" lon="11.337503696158743"><ele>242.0</ele><time>2026-04-23T14:14:35.999Z</time></trkpt><trkpt lat="46.4755252869026" lon="11.337469866702103"><ele>242.8</ele><time>2026-04-23T14:14:36.999Z</time></trkpt><trkpt lat="46.47541398198054" lon="11.337455245812611"><ele>243.6</ele><time>2026-04-23T14:14:37.999Z</time></trkpt><trkpt lat="46.47531327662136" lon="11.337445650651928"><ele>244.40000000000003</ele><time>2026-04-23T14:14:38.999Z</time></trkpt><trkpt lat="46.47521976213645" lon="11.337437412444464"><ele>245.20000000000002</ele><time>2026-04-23T14:14:39.999Z</time></trkpt><trkpt lat="46.4751298902841" lon="11.337431501525916"><ele>246.0</ele><time>2026-04-23T14:14:40.999Z</time></trkpt><trkpt lat="46.475039727578945" lon="11.33742390259498"><ele>246.0</ele><time>2026-04-23T14:14:41.999Z</time></trkpt><trkpt lat="46.4749511224032" lon="11.3374141207549"><ele>246.0</ele><time>2026-04-23T14:14:42.999Z</time></trkpt><trkpt lat="46.474864882309866" lon="11.337405796420034"><ele>246.0</ele><time>2026-04-23T14:14:43.999Z</time></trkpt><trkpt lat="46.47478333658436" lon="11.337397914722498"><ele>246.0</ele><time>2026-04-23T14:14:44.999Z</time></trkpt><trkpt lat="46.47470077622783" lon="11.337391411091566"><ele>246.0</ele><time>2026-04-23T14:14:45.999Z</time></trkpt><trkpt lat="46.47461845737879" lon="11.337382394211716"><ele>246.0</ele><time>2026-04-23T14:14:46.999Z</time></trkpt><trkpt lat="46.47453576854248" lon="11.3373726425768"><ele>245.66666666666666</ele><time>2026-04-23T14:14:47.999Z</time></trkpt><trkpt lat="46.47444931508589" lon="11.3373631496662"><ele>245.33333333333331</ele><time>2026-04-23T14:14:48.999Z</time></trkpt><trkpt lat="46.47436200655472" lon="11.337356030609838"><ele>245.0</ele><time>2026-04-23T14:14:49.999Z</time></trkpt><trkpt lat="46.47427312225855" lon="11.337350115936882"><ele>244.66666666666666</ele><time>2026-04-23T14:14:50.999Z</time></trkpt><trkpt lat="46.47418341751734" lon="11.337346171463405"><ele>244.33333333333331</ele><time>2026-04-23T14:14:51.999Z</time></trkpt><trkpt lat="46.47409389974795" lon="11.337343415492066"><ele>244.0</ele><time>2026-04-23T14:14:52.999Z</time></trkpt><trkpt lat="46.47400298529656" lon="11.337341490215323"><ele>243.99999999999997</ele><time>2026-04-23T14:14:53.999Z</time></trkpt><trkpt lat="46.473910229171835" lon="11.337341044256062"><ele>244.0</ele><time>2026-04-23T14:14:54.999Z</time></trkpt><trkpt lat="46.473820749553745" lon="11.337336933771354"><ele>244.0</ele><time>2026-04-23T14:14:55.999Z</time></trkpt><trkpt lat="46.47373819816063" lon="11.337331323087852"><ele>244.0</ele><time>2026-04-23T14:14:56.999Z</time></trkpt><trkpt lat="46.47365951714901" lon="11.337329733401605"><ele>243.99999999999997</ele><time>2026-04-23T14:14:57.999Z</time></trkpt><trkpt lat="46.47358455443989" lon="11.337329580740827"><ele>244.0</ele><time>2026-04-23T14:14:58.999Z</time></trkpt><trkpt lat="46.47350957428965" lon="11.337326329363686"><ele>244.16666666666666</ele><time>2026-04-23T14:14:59.999Z</time></trkpt><trkpt lat="46.47342853872429" lon="11.337319515821243"><ele>244.33333333333331</ele><time>2026-04-23T14:15:00.999Z</time></trkpt><trkpt lat="46.47333933943267" lon="11.337315122830104"><ele>244.5</ele><time>2026-04-23T14:15:01.999Z</time></trkpt><trkpt lat="46.47324931963732" lon="11.337313829477505"><ele>244.66666666666669</ele><time>2026-04-23T14:15:02.999Z</time></trkpt><trkpt lat="46.47316482264591" lon="11.33731250946855"><ele>244.83333333333334</ele><time>2026-04-23T14:15:03.999Z</time></trkpt><trkpt lat="46.473083207638645" lon="11.337309795453992"><ele>245.0</ele><time>2026-04-23T14:15:04.999Z</time></trkpt><trkpt lat="46.47299907685922" lon="11.337306286859036"><ele>244.6</ele><time>2026-04-23T14:15:05.999Z</time></trkpt><trkpt lat="46.4729105556611" lon="11.337304403371958"><ele>244.2</ele><time>2026-04-23T14:15:06.999Z</time></trkpt><trkpt lat="46.47282071163211" lon="11.337309558645071"><ele>243.8</ele><time>2026-04-23T14:15:07.999Z</time></trkpt><trkpt lat="46.47272618717592" lon="11.337321252538503"><ele>243.4</ele><time>2026-04-23T14:15:08.999Z</time></trkpt><trkpt lat="46.47262861436636" lon="11.337339433043898"><ele>243.0</ele><time>2026-04-23T14:15:09.999Z</time></trkpt><trkpt lat="46.47252817695627" lon="11.337356060801513"><ele>243.0</ele><time>2026-04-23T14:15:10.999Z</time></trkpt><trkpt lat="46.4724234308056" lon="11.337370644612653"><ele>243.0</ele><time>2026-04-23T14:15:11.999Z</time></trkpt><trkpt lat="46.47231634711804" lon="11.337384268526426"><ele>243.0</ele><time>2026-04-23T14:15:12.999Z</time></trkpt><trkpt lat="46.47221178030354" lon="11.337395833095481"><ele>243.0</ele><time>2026-04-23T14:15:13.999Z</time></trkpt><trkpt lat="46.47210962899389" lon="11.337406803599684"><ele>243.0</ele><time>2026-04-23T14:15:14.999Z</time></trkpt><trkpt lat="46.47200726516721" lon="11.337416636754307"><ele>243.2</ele><time>2026-04-23T14:15:15.999Z</time></trkpt><trkpt lat="46.471903416358174" lon="11.337418529025792"><ele>243.4</ele><time>2026-04-23T14:15:16.999Z</time></trkpt><trkpt lat="46.47179892200407" lon="11.337407213878423"><ele>243.59999999999997</ele><time>2026-04-23T14:15:17.999Z</time></trkpt><trkpt lat="46.47169697049138" lon="11.33738473931431"><ele>243.79999999999998</ele><time>2026-04-23T14:15:18.999Z</time></trkpt><trkpt lat="46.47159976443454" lon="11.337341797582146"><ele>244.0</ele><time>2026-04-23T14:15:19.999Z</time></trkpt><trkpt lat="46.47150798398083" lon="11.337278820142458"><ele>244.2</ele><time>2026-04-23T14:15:20.999Z</time></trkpt><trkpt lat="46.471420335159316" lon="11.337205856141171"><ele>244.39999999999998</ele><time>2026-04-23T14:15:21.999Z</time></trkpt><trkpt lat="46.47134130888301" lon="11.33713830201381"><ele>244.6</ele><time>2026-04-23T14:15:22.999Z</time></trkpt><trkpt lat="46.47126666678704" lon="11.337073451315467"><ele>244.8</ele><time>2026-04-23T14:15:23.999Z</time></trkpt><trkpt lat="46.471194082480125" lon="11.337008078468406"><ele>245.0</ele><time>2026-04-23T14:15:24.999Z</time></trkpt><trkpt lat="46.47111388933907" lon="11.336936487643296"><ele>244.2</ele><time>2026-04-23T14:15:25.999Z</time></trkpt><trkpt lat="46.471025410272965" lon="11.336863676324713"><ele>243.4</ele><time>2026-04-23T14:15:26.999Z</time></trkpt><trkpt lat="46.47093475511976" lon="11.336783914436863"><ele>242.60000000000002</ele><time>2026-04-23T14:15:27.999Z</time></trkpt><trkpt lat="46.47084923779502" lon="11.336700694722717"><ele>241.8</ele><time>2026-04-23T14:15:28.999Z</time></trkpt><trkpt lat="46.47077308969257" lon="11.336621734331942"><ele>241.0</ele><time>2026-04-23T14:15:29.999Z</time></trkpt><trkpt lat="46.47069721983626" lon="11.336541125751765"><ele>240.99999999999997</ele><time>2026-04-23T14:15:30.999Z</time></trkpt><trkpt lat="46.47062213151531" lon="11.336456586613524"><ele>241.0</ele><time>2026-04-23T14:15:31.999Z</time></trkpt><trkpt lat="46.470553646550044" lon="11.336374990292258"><ele>241.0</ele><time>2026-04-23T14:15:32.999Z</time></trkpt><trkpt lat="46.47049003227951" lon="11.336297635024247"><ele>241.0</ele><time>2026-04-23T14:15:33.999Z</time></trkpt><trkpt lat="46.47042543663776" lon="11.33622549659098"><ele>240.99999999999997</ele><time>2026-04-23T14:15:34.999Z</time></trkpt><trkpt lat="46.470365014964734" lon="11.336160495421632"><ele>241.0</ele><time>2026-04-23T14:15:35.999Z</time></trkpt><trkpt lat="46.47030312705753" lon="11.336098241023823"><ele>240.83333333333331</ele><time>2026-04-23T14:15:36.999Z</time></trkpt><trkpt lat="46.4702378864345" lon="11.33603681928063"><ele>240.66666666666666</ele><time>2026-04-23T14:15:37.999Z</time></trkpt><trkpt lat="46.470170854601754" lon="11.335971717838891"><ele>240.5</ele><time>2026-04-23T14:15:38.999Z</time></trkpt><trkpt lat="46.47010358853009" lon="11.335909769050506"><ele>240.33333333333331</ele><time>2026-04-23T14:15:39.999Z</time></trkpt><trkpt lat="46.470039650280945" lon="11.335850550673278"><ele>240.16666666666666</ele><time>2026-04-23T14:15:40.999Z</time></trkpt><trkpt lat="46.46997951393679" lon="11.335793062746111"><ele>240.0</ele><time>2026-04-23T14:15:41.999Z</time></trkpt><trkpt lat="46.4699199528882" lon="11.335741330056404"><ele>240.0</ele><time>2026-04-23T14:15:42.999Z</time></trkpt><trkpt lat="46.46986480169471" lon="11.335695154226288"><ele>240.0</ele><time>2026-04-23T14:15:43.999Z</time></trkpt><trkpt lat="46.469809641337726" lon="11.33564683957491"><ele>240.0</ele><time>2026-04-23T14:15:44.998Z</time></trkpt><trkpt lat="46.46974602217228" lon="11.335592172197142"><ele>240.0</ele><time>2026-04-23T14:15:45.998Z</time></trkpt><trkpt lat="46.469681430637266" lon="11.335538578315248"><ele>240.0</ele><time>2026-04-23T14:15:46.998Z</time></trkpt><trkpt lat="46.469620944395714" lon="11.335495628643086"><ele>240.0</ele><time>2026-04-23T14:15:47.998Z</time></trkpt><trkpt lat="46.46955452057948" lon="11.33545315090621"><ele>240.0</ele><time>2026-04-23T14:15:48.998Z</time></trkpt><trkpt lat="46.469486252339586" lon="11.335409794735561"><ele>241.14285714285717</ele><time>2026-04-23T14:15:49.998Z</time></trkpt><trkpt lat="46.469423083442614" lon="11.335369846586062"><ele>242.28571428571428</ele><time>2026-04-23T14:15:50.998Z</time></trkpt><trkpt lat="46.46935716506139" lon="11.335330324203039"><ele>243.42857142857144</ele><time>2026-04-23T14:15:51.998Z</time></trkpt><trkpt lat="46.46929883871057" lon="11.335293488562879"><ele>244.57142857142858</ele><time>2026-04-23T14:15:52.998Z</time></trkpt><trkpt lat="46.4691936532464" lon="11.33523089383084"><ele>245.71428571428572</ele><time>2026-04-23T14:15:54.998Z</time></trkpt><trkpt lat="46.469135159191694" lon="11.335193615205679"><ele>246.85714285714286</ele><time>2026-04-23T14:15:55.998Z</time></trkpt><trkpt lat="46.46907315104078" lon="11.33515564424256"><ele>248.0</ele><time>2026-04-23T14:15:56.998Z</time></trkpt><trkpt lat="46.46901156330885" lon="11.335117376688844"><ele>248.00000000000003</ele><time>2026-04-23T14:15:57.998Z</time></trkpt><trkpt lat="46.46895085033636" lon="11.335082443696741"><ele>248.0</ele><time>2026-04-23T14:15:58.998Z</time></trkpt><trkpt lat="46.46888993052068" lon="11.335046304101496"><ele>248.0</ele><time>2026-04-23T14:15:59.998Z</time></trkpt><trkpt lat="46.46882918839311" lon="11.335009260442913"><ele>248.0</ele><time>2026-04-23T14:16:00.998Z</time></trkpt><trkpt lat="46.46873387284538" lon="11.334953588951207"><ele>248.00000000000003</ele><time>2026-04-23T14:16:02.998Z</time></trkpt><trkpt lat="46.46865616565344" lon="11.334911440364571"><ele>248.0</ele><time>2026-04-23T14:16:04.998Z</time></trkpt><trkpt lat="46.46854285772923" lon="11.33485149719313"><ele>247.0</ele><time>2026-04-23T14:16:06.998Z</time></trkpt><trkpt lat="46.4684310913689" lon="11.334769487575647"><ele>246.0</ele><time>2026-04-23T14:16:07.998Z</time></trkpt><trkpt lat="46.46829391903356" lon="11.334690791082032"><ele>245.0</ele><time>2026-04-23T14:16:08.998Z</time></trkpt><trkpt lat="46.468156876515096" lon="11.3346284574573"><ele>244.0</ele><time>2026-04-23T14:16:09.998Z</time></trkpt><trkpt lat="46.46803414650773" lon="11.334565408632436"><ele>244.0</ele><time>2026-04-23T14:16:10.998Z</time></trkpt><trkpt lat="46.46788947032027" lon="11.334499657176293"><ele>244.0</ele><time>2026-04-23T14:16:11.998Z</time></trkpt><trkpt lat="46.467762426253174" lon="11.334455572041755"><ele>244.0</ele><time>2026-04-23T14:16:12.998Z</time></trkpt><trkpt lat="46.46765022176757" lon="11.334407514792245"><ele>244.0</ele><time>2026-04-23T14:16:13.998Z</time></trkpt><trkpt lat="46.46756039577901" lon="11.334367330869265"><ele>244.0</ele><time>2026-04-23T14:16:14.998Z</time></trkpt><trkpt lat="46.46749387051403" lon="11.334338968270883"><ele>243.99999999999997</ele><time>2026-04-23T14:16:15.998Z</time></trkpt><trkpt lat="46.467387437697575" lon="11.334293752529865"><ele>243.99999999999997</ele><time>2026-04-23T14:16:17.998Z</time></trkpt><trkpt lat="46.467271628263724" lon="11.334238843112503"><ele>244.0</ele><time>2026-04-23T14:16:19.998Z</time></trkpt><trkpt lat="46.46715223877428" lon="11.334176336375084"><ele>244.0</ele><time>2026-04-23T14:16:21.998Z</time></trkpt><trkpt lat="46.467079731155806" lon="11.33412714007918"><ele>244.2</ele><time>2026-04-23T14:16:22.998Z</time></trkpt><trkpt lat="46.466999680023505" lon="11.334066378425646"><ele>244.39999999999998</ele><time>2026-04-23T14:16:23.998Z</time></trkpt><trkpt lat="46.466914175294875" lon="11.333992904676347"><ele>244.6</ele><time>2026-04-23T14:16:24.998Z</time></trkpt><trkpt lat="46.466816343690226" lon="11.333904442102293"><ele>244.8</ele><time>2026-04-23T14:16:25.998Z</time></trkpt><trkpt lat="46.466729928827405" lon="11.333821422069201"><ele>245.0</ele><time>2026-04-23T14:16:26.998Z</time></trkpt><trkpt lat="46.466646387478114" lon="11.33374914144662"><ele>244.4</ele><time>2026-04-23T14:16:27.998Z</time></trkpt><trkpt lat="46.46656120606315" lon="11.333684647738913"><ele>243.8</ele><time>2026-04-23T14:16:28.998Z</time></trkpt><trkpt lat="46.466471040402475" lon="11.33361890322161"><ele>243.2</ele><time>2026-04-23T14:16:29.998Z</time></trkpt><trkpt lat="46.46637913856369" lon="11.333559101987783"><ele>242.6</ele><time>2026-04-23T14:16:30.998Z</time></trkpt><trkpt lat="46.46629186811773" lon="11.333517086562336"><ele>242.0</ele><time>2026-04-23T14:16:31.998Z</time></trkpt><trkpt lat="46.46620885887569" lon="11.333485412191447"><ele>241.66666666666669</ele><time>2026-04-23T14:16:32.998Z</time></trkpt><trkpt lat="46.46613204429925" lon="11.333457227507218"><ele>241.33333333333334</ele><time>2026-04-23T14:16:33.998Z</time></trkpt><trkpt lat="46.46606111514286" lon="11.333425743909205"><ele>241.0</ele><time>2026-04-23T14:16:34.998Z</time></trkpt><trkpt lat="46.465994670369874" lon="11.33339985567058"><ele>240.66666666666669</ele><time>2026-04-23T14:16:35.998Z</time></trkpt><trkpt lat="46.46589159958253" lon="11.333352724184966"><ele>240.33333333333334</ele><time>2026-04-23T14:16:37.999Z</time></trkpt><trkpt lat="46.46583018185616" lon="11.33331483384555"><ele>240.0</ele><time>2026-04-23T14:16:39.999Z</time></trkpt><trkpt lat="46.46571037731158" lon="11.33328844011962"><ele>240.0</ele><time>2026-04-23T14:16:41.999Z</time></trkpt><trkpt lat="46.46563572172335" lon="11.333263510507145"><ele>240.0</ele><time>2026-04-23T14:16:42.999Z</time></trkpt><trkpt lat="46.46555495705358" lon="11.333237427040991"><ele>240.0</ele><time>2026-04-23T14:16:43.999Z</time></trkpt><trkpt lat="46.465489266886166" lon="11.33321679803366"><ele>240.0</ele><time>2026-04-23T14:16:44.999Z</time></trkpt><trkpt lat="46.46539408732763" lon="11.33319558243738"><ele>240.0</ele><time>2026-04-23T14:16:46.999Z</time></trkpt><trkpt lat="46.46532713930922" lon="11.333181511246059"><ele>240.0</ele><time>2026-04-23T14:16:50.999Z</time></trkpt><trkpt lat="46.465261487176136" lon="11.333172069195818"><ele>240.33333333333334</ele><time>2026-04-23T14:16:59.999Z</time></trkpt><trkpt lat="46.46518568003474" lon="11.333166557639984"><ele>240.66666666666669</ele><time>2026-04-23T14:17:02.999Z</time></trkpt><trkpt lat="46.46507436088401" lon="11.333176491419454"><ele>241.0</ele><time>2026-04-23T14:17:04.999Z</time></trkpt><trkpt lat="46.46500788725766" lon="11.333182007277845"><ele>241.33333333333334</ele><time>2026-04-23T14:17:05.999Z</time></trkpt><trkpt lat="46.46494141392961" lon="11.333183658646458"><ele>241.66666666666669</ele><time>2026-04-23T14:17:06.999Z</time></trkpt><trkpt lat="46.464819127829834" lon="11.333179096465233"><ele>242.0</ele><time>2026-04-23T14:17:08.999Z</time></trkpt><trkpt lat="46.46471727617937" lon="11.33317373780692"><ele>242.00000000000003</ele><time>2026-04-23T14:17:10.999Z</time></trkpt><trkpt lat="46.46465356148651" lon="11.333129824193874"><ele>242.0</ele><time>2026-04-23T14:17:14.999Z</time></trkpt><trkpt lat="46.46458431840398" lon="11.333119602399126"><ele>242.0</ele><time>2026-04-23T14:17:23.999Z</time></trkpt><trkpt lat="46.46451137744299" lon="11.33312337283148"><ele>242.0</ele><time>2026-04-23T14:17:24.999Z</time></trkpt><trkpt lat="46.46441859850816" lon="11.333124383593734"><ele>242.00000000000003</ele><time>2026-04-23T14:17:25.999Z</time></trkpt><trkpt lat="46.464329037038624" lon="11.333123524220335"><ele>242.0</ele><time>2026-04-23T14:17:26.999Z</time></trkpt><trkpt lat="46.4642142086606" lon="11.333121224345794"><ele>242.0</ele><time>2026-04-23T14:17:27.999Z</time></trkpt><trkpt lat="46.46410561327241" lon="11.33311079603832"><ele>242.0</ele><time>2026-04-23T14:17:28.999Z</time></trkpt><trkpt lat="46.46400338476793" lon="11.33309622631779"><ele>242.0</ele><time>2026-04-23T14:17:29.999Z</time></trkpt><trkpt lat="46.463912840799765" lon="11.333088738388726"><ele>242.0</ele><time>2026-04-23T14:17:30.999Z</time></trkpt><trkpt lat="46.463827778399235" lon="11.333083038351257"><ele>242.0</ele><time>2026-04-23T14:17:31.999Z</time></trkpt><trkpt lat="46.46374599042841" lon="11.333084980540017"><ele>241.75</ele><time>2026-04-23T14:17:32.999Z</time></trkpt><trkpt lat="46.463656103337236" lon="11.333102636654559"><ele>241.5</ele><time>2026-04-23T14:17:33.999Z</time></trkpt><trkpt lat="46.463537918610086" lon="11.333131137378993"><ele>241.25</ele><time>2026-04-23T14:17:34.999Z</time></trkpt><trkpt lat="46.4634023024138" lon="11.333136139164372"><ele>241.0</ele><time>2026-04-23T14:17:35.999Z</time></trkpt><trkpt lat="46.46329856626959" lon="11.333181854985458"><ele>240.99999999999997</ele><time>2026-04-23T14:17:36.999Z</time></trkpt><trkpt lat="46.46321776467024" lon="11.333204735525893"><ele>241.0</ele><time>2026-04-23T14:17:37.999Z</time></trkpt><trkpt lat="46.463108260348264" lon="11.33323875829544"><ele>241.0</ele><time>2026-04-23T14:17:39.999Z</time></trkpt><trkpt lat="46.4630378250201" lon="11.333257118893572"><ele>241.0</ele><time>2026-04-23T14:17:41.999Z</time></trkpt><trkpt lat="46.4629720865481" lon="11.333273610764307"><ele>240.99999999999997</ele><time>2026-04-23T14:17:43.999Z</time></trkpt><trkpt lat="46.46288492087563" lon="11.333298295858045"><ele>241.0</ele><time>2026-04-23T14:17:45.999Z</time></trkpt><trkpt lat="46.46281431930826" lon="11.333318660660295"><ele>240.60000000000002</ele><time>2026-04-23T14:17:47.999Z</time></trkpt><trkpt lat="46.46274581367293" lon="11.333342901153031"><ele>240.20000000000002</ele><time>2026-04-23T14:17:49.999Z</time></trkpt><trkpt lat="46.462639570856666" lon="11.333372563586273"><ele>239.79999999999998</ele><time>2026-04-23T14:17:51.998Z</time></trkpt><trkpt lat="46.462524068094346" lon="11.333402061659596"><ele>239.39999999999998</ele><time>2026-04-23T14:17:53.998Z</time></trkpt><trkpt lat="46.46242297339421" lon="11.333430477936506"><ele>239.0</ele><time>2026-04-23T14:17:55.998Z</time></trkpt><trkpt lat="46.46234060351332" lon="11.333453607772814"><ele>239.0</ele><time>2026-04-23T14:17:57.998Z</time></trkpt><trkpt lat="46.46227073456669" lon="11.333471099965339"><ele>238.99999999999997</ele><time>2026-04-23T14:17:59.998Z</time></trkpt><trkpt lat="46.462190001615134" lon="11.333488737221504"><ele>238.99999999999997</ele><time>2026-04-23T14:18:01.998Z</time></trkpt><trkpt lat="46.46207231470418" lon="11.333503595547718"><ele>239.0</ele><time>2026-04-23T14:18:03.998Z</time></trkpt><trkpt lat="46.461953566216565" lon="11.33351587826879"><ele>239.0</ele><time>2026-04-23T14:18:05.998Z</time></trkpt><trkpt lat="46.46183389310088" lon="11.333529681502464"><ele>238.5714285714286</ele><time>2026-04-23T14:18:07.998Z</time></trkpt><trkpt lat="46.46176467206766" lon="11.333534340631918"><ele>238.14285714285717</ele><time>2026-04-23T14:18:08.998Z</time></trkpt><trkpt lat="46.46169218902481" lon="11.333538458956356"><ele>237.71428571428572</ele><time>2026-04-23T14:18:09.998Z</time></trkpt><trkpt lat="46.46162210333312" lon="11.33353957033203"><ele>237.2857142857143</ele><time>2026-04-23T14:18:10.998Z</time></trkpt><trkpt lat="46.461557222037236" lon="11.333536226551377"><ele>236.8571428571429</ele><time>2026-04-23T14:18:11.998Z</time></trkpt><trkpt lat="46.46149169154152" lon="11.33352741489559"><ele>236.42857142857142</ele><time>2026-04-23T14:18:12.998Z</time></trkpt><trkpt lat="46.461424738496945" lon="11.333517462572772"><ele>236.0</ele><time>2026-04-23T14:18:13.998Z</time></trkpt><trkpt lat="46.46135627320948" lon="11.3334994315696"><ele>236.00000000000003</ele><time>2026-04-23T14:18:14.998Z</time></trkpt><trkpt lat="46.461288802487715" lon="11.333472838889406"><ele>236.0</ele><time>2026-04-23T14:18:15.998Z</time></trkpt><trkpt lat="46.46121912559934" lon="11.333444018413557"><ele>236.0</ele><time>2026-04-23T14:18:16.998Z</time></trkpt><trkpt lat="46.46113099210101" lon="11.333402139134392"><ele>236.0</ele><time>2026-04-23T14:18:18.998Z</time></trkpt><trkpt lat="46.46106527299924" lon="11.33336609102505"><ele>236.00000000000003</ele><time>2026-04-23T14:18:24.998Z</time></trkpt><trkpt lat="46.46103966265468" lon="11.333540819883101"><ele>236.0</ele><time>2026-04-23T14:18:26.998Z</time></trkpt><trkpt lat="46.46101611234017" lon="11.333661825870795"><ele>236.33333333333334</ele><time>2026-04-23T14:18:27.998Z</time></trkpt><trkpt lat="46.461000777725914" lon="11.33378191434034"><ele>236.66666666666669</ele><time>2026-04-23T14:18:28.998Z</time></trkpt><trkpt lat="46.46098001616866" lon="11.33394583908162"><ele>237.0</ele><time>2026-04-23T14:18:30.998Z</time></trkpt><trkpt lat="46.46096477089476" lon="11.334066212375077"><ele>237.33333333333331</ele><time>2026-04-23T14:18:32.998Z</time></trkpt><trkpt lat="46.460978844592" lon="11.334168574802959"><ele>237.66666666666666</ele><time>2026-04-23T14:18:34.998Z</time></trkpt><trkpt lat="46.46099301548804" lon="11.334277265761768"><ele>238.0</ele><time>2026-04-23T14:18:36.998Z</time></trkpt><trkpt lat="46.46102048965123" lon="11.334417495952637"><ele>239.0</ele><time>2026-04-23T14:18:38.998Z</time></trkpt><trkpt lat="46.46103025688408" lon="11.334561069454013"><ele>239.0</ele><time>2026-04-23T14:18:40.998Z</time></trkpt><trkpt lat="46.46103075634965" lon="11.33467248891927"><ele>239.0</ele><time>2026-04-23T14:18:42.998Z</time></trkpt><trkpt lat="46.46110685872159" lon="11.334639069392907"><ele>239.0</ele><time>2026-04-23T14:18:46.999Z</time></trkpt><trkpt lat="46.461180622241685" lon="11.334644646971213"><ele>239.0</ele><time>2026-04-23T14:18:49.999Z</time></trkpt></trkseg></trk></gpx>